<?xml version="1.0" encoding="UTF-8" standalone="no" ?>
<gpx xmlns="http://www.topografix.com/GPX/1/1" xmlns:xsi="http://www.w3.org/2001/XMLSchema-instance" xsi:schemaLocation="http://www.topografix.com/GPX/1/1 http://www.topografix.com/GPX/1/1/gpx.xsd" version="1.1" creator="VisuGPX - https://www.visugpx.com">
  <metadata>
    <name>Blauvac et le chemin des pierres sèches</name>
    <desc><![CDATA[Balade au départ de Blauvac et passant par Notre Dame de Vie et le chemin des Pierres Sèches.]]></desc>
  </metadata>
  <trk>
    <name><![CDATA[2019-01-07 15-15-27]]></name>
    <trkseg>
      <trkpt lat="44.02977" lon="5.19953">
        <ele>425.52</ele>
        <time>2019-01-07T08:20:12Z</time>
      </trkpt>
      <trkpt lat="44.02977" lon="5.19954">
        <ele>426</ele>
        <time>2019-01-07T08:20:43Z</time>
      </trkpt>
      <trkpt lat="44.02979" lon="5.19952">
        <ele>425.52</ele>
        <time>2019-01-07T08:21:27Z</time>
      </trkpt>
      <trkpt lat="44.0298" lon="5.1995">
        <ele>426</ele>
        <time>2019-01-07T08:21:59Z</time>
      </trkpt>
      <trkpt lat="44.02978" lon="5.19946">
        <ele>426</ele>
        <time>2019-01-07T08:22:02Z</time>
      </trkpt>
      <trkpt lat="44.02984" lon="5.19934">
        <ele>426.48</ele>
        <time>2019-01-07T08:22:20Z</time>
      </trkpt>
      <trkpt lat="44.02983" lon="5.19934">
        <ele>426</ele>
        <time>2019-01-07T08:23:49Z</time>
      </trkpt>
      <trkpt lat="44.0298" lon="5.19934">
        <ele>426</ele>
        <time>2019-01-07T08:27:09Z</time>
      </trkpt>
      <trkpt lat="44.0298" lon="5.19933">
        <ele>426</ele>
        <time>2019-01-07T08:27:32Z</time>
      </trkpt>
      <trkpt lat="44.02979" lon="5.19934">
        <ele>426</ele>
        <time>2019-01-07T08:27:56Z</time>
      </trkpt>
      <trkpt lat="44.02981" lon="5.19935">
        <ele>426</ele>
        <time>2019-01-07T08:28:47Z</time>
      </trkpt>
      <trkpt lat="44.0298" lon="5.19934">
        <ele>426</ele>
        <time>2019-01-07T08:29:00Z</time>
      </trkpt>
      <trkpt lat="44.02974" lon="5.19928">
        <ele>426</ele>
        <time>2019-01-07T08:29:13Z</time>
      </trkpt>
      <trkpt lat="44.02983" lon="5.19909">
        <ele>425.04</ele>
        <time>2019-01-07T08:29:32Z</time>
      </trkpt>
      <trkpt lat="44.02988" lon="5.19903">
        <ele>424.08</ele>
        <time>2019-01-07T08:29:50Z</time>
      </trkpt>
      <trkpt lat="44.02995" lon="5.19894">
        <ele>423.6</ele>
        <time>2019-01-07T08:30:08Z</time>
      </trkpt>
      <trkpt lat="44.0301" lon="5.19877">
        <ele>423.12</ele>
        <time>2019-01-07T08:30:29Z</time>
      </trkpt>
      <trkpt lat="44.03021" lon="5.19865">
        <ele>422.64</ele>
        <time>2019-01-07T08:30:43Z</time>
      </trkpt>
      <trkpt lat="44.03032" lon="5.19852">
        <ele>422.16</ele>
        <time>2019-01-07T08:30:59Z</time>
      </trkpt>
      <trkpt lat="44.03046" lon="5.19836">
        <ele>421.68</ele>
        <time>2019-01-07T08:31:16Z</time>
      </trkpt>
      <trkpt lat="44.03063" lon="5.1982">
        <ele>421.68</ele>
        <time>2019-01-07T08:31:35Z</time>
      </trkpt>
      <trkpt lat="44.03079" lon="5.19804">
        <ele>421.19</ele>
        <time>2019-01-07T08:31:55Z</time>
      </trkpt>
      <trkpt lat="44.03091" lon="5.19797">
        <ele>421.19</ele>
        <time>2019-01-07T08:32:13Z</time>
      </trkpt>
      <trkpt lat="44.03112" lon="5.19783">
        <ele>420.23</ele>
        <time>2019-01-07T08:32:36Z</time>
      </trkpt>
      <trkpt lat="44.03127" lon="5.19767">
        <ele>419.75</ele>
        <time>2019-01-07T08:32:55Z</time>
      </trkpt>
      <trkpt lat="44.03132" lon="5.19745">
        <ele>418.31</ele>
        <time>2019-01-07T08:33:14Z</time>
      </trkpt>
      <trkpt lat="44.03133" lon="5.19741">
        <ele>417.83</ele>
        <time>2019-01-07T08:33:17Z</time>
      </trkpt>
      <trkpt lat="44.03138" lon="5.19714">
        <ele>414.47</ele>
        <time>2019-01-07T08:33:35Z</time>
      </trkpt>
      <trkpt lat="44.03149" lon="5.19688">
        <ele>413.02</ele>
        <time>2019-01-07T08:33:55Z</time>
      </trkpt>
      <trkpt lat="44.03158" lon="5.19664">
        <ele>410.62</ele>
        <time>2019-01-07T08:34:18Z</time>
      </trkpt>
      <trkpt lat="44.03159" lon="5.19663">
        <ele>410.62</ele>
        <time>2019-01-07T08:34:19Z</time>
      </trkpt>
      <trkpt lat="44.03162" lon="5.19657">
        <ele>410.62</ele>
        <time>2019-01-07T08:34:23Z</time>
      </trkpt>
      <trkpt lat="44.03167" lon="5.19642">
        <ele>408.7</ele>
        <time>2019-01-07T08:34:34Z</time>
      </trkpt>
      <trkpt lat="44.03174" lon="5.19626">
        <ele>408.22</ele>
        <time>2019-01-07T08:34:46Z</time>
      </trkpt>
      <trkpt lat="44.03181" lon="5.19602">
        <ele>406.29</ele>
        <time>2019-01-07T08:35:04Z</time>
      </trkpt>
      <trkpt lat="44.03187" lon="5.19579">
        <ele>405.33</ele>
        <time>2019-01-07T08:35:21Z</time>
      </trkpt>
      <trkpt lat="44.0319" lon="5.19559">
        <ele>404.37</ele>
        <time>2019-01-07T08:35:38Z</time>
      </trkpt>
      <trkpt lat="44.03195" lon="5.19542">
        <ele>403.41</ele>
        <time>2019-01-07T08:35:49Z</time>
      </trkpt>
      <trkpt lat="44.03206" lon="5.19519">
        <ele>401.49</ele>
        <time>2019-01-07T08:36:07Z</time>
      </trkpt>
      <trkpt lat="44.03215" lon="5.195">
        <ele>399.57</ele>
        <time>2019-01-07T08:36:24Z</time>
      </trkpt>
      <trkpt lat="44.03222" lon="5.19479">
        <ele>396.68</ele>
        <time>2019-01-07T08:36:45Z</time>
      </trkpt>
      <trkpt lat="44.03236" lon="5.19467">
        <ele>393.8</ele>
        <time>2019-01-07T08:37:08Z</time>
      </trkpt>
      <trkpt lat="44.03249" lon="5.19465">
        <ele>390.43</ele>
        <time>2019-01-07T08:37:22Z</time>
      </trkpt>
      <trkpt lat="44.03255" lon="5.19464">
        <ele>389.95</ele>
        <time>2019-01-07T08:37:43Z</time>
      </trkpt>
      <trkpt lat="44.03259" lon="5.19469">
        <ele>389.95</ele>
        <time>2019-01-07T08:38:10Z</time>
      </trkpt>
      <trkpt lat="44.03275" lon="5.19471">
        <ele>391.39</ele>
        <time>2019-01-07T08:38:31Z</time>
      </trkpt>
      <trkpt lat="44.03293" lon="5.19455">
        <ele>392.84</ele>
        <time>2019-01-07T08:38:52Z</time>
      </trkpt>
      <trkpt lat="44.03306" lon="5.19441">
        <ele>393.8</ele>
        <time>2019-01-07T08:39:08Z</time>
      </trkpt>
      <trkpt lat="44.03323" lon="5.19421">
        <ele>395.24</ele>
        <time>2019-01-07T08:39:30Z</time>
      </trkpt>
      <trkpt lat="44.03339" lon="5.19402">
        <ele>395.72</ele>
        <time>2019-01-07T08:39:49Z</time>
      </trkpt>
      <trkpt lat="44.03356" lon="5.19383">
        <ele>395.72</ele>
        <time>2019-01-07T08:40:12Z</time>
      </trkpt>
      <trkpt lat="44.03372" lon="5.19366">
        <ele>395.72</ele>
        <time>2019-01-07T08:40:28Z</time>
      </trkpt>
      <trkpt lat="44.03384" lon="5.19352">
        <ele>395.72</ele>
        <time>2019-01-07T08:40:40Z</time>
      </trkpt>
      <trkpt lat="44.03395" lon="5.19331">
        <ele>395.72</ele>
        <time>2019-01-07T08:40:58Z</time>
      </trkpt>
      <trkpt lat="44.0341" lon="5.19311">
        <ele>395.72</ele>
        <time>2019-01-07T08:41:16Z</time>
      </trkpt>
      <trkpt lat="44.03411" lon="5.19312">
        <ele>395.24</ele>
        <time>2019-01-07T08:41:43Z</time>
      </trkpt>
      <trkpt lat="44.0341" lon="5.19312">
        <ele>395.24</ele>
        <time>2019-01-07T08:42:11Z</time>
      </trkpt>
      <trkpt lat="44.0341" lon="5.19312">
        <ele>395.72</ele>
        <time>2019-01-07T08:42:35Z</time>
      </trkpt>
      <trkpt lat="44.0342" lon="5.19297">
        <ele>396.2</ele>
        <time>2019-01-07T08:42:51Z</time>
      </trkpt>
      <trkpt lat="44.03431" lon="5.19281">
        <ele>397.16</ele>
        <time>2019-01-07T08:43:06Z</time>
      </trkpt>
      <trkpt lat="44.03433" lon="5.19271">
        <ele>397.16</ele>
        <time>2019-01-07T08:43:14Z</time>
      </trkpt>
      <trkpt lat="44.0344" lon="5.19247">
        <ele>398.12</ele>
        <time>2019-01-07T08:43:32Z</time>
      </trkpt>
      <trkpt lat="44.03445" lon="5.19222">
        <ele>399.08</ele>
        <time>2019-01-07T08:43:50Z</time>
      </trkpt>
      <trkpt lat="44.03445" lon="5.1922">
        <ele>399.08</ele>
        <time>2019-01-07T08:43:51Z</time>
      </trkpt>
      <trkpt lat="44.03447" lon="5.19212">
        <ele>399.08</ele>
        <time>2019-01-07T08:43:56Z</time>
      </trkpt>
      <trkpt lat="44.03457" lon="5.19185">
        <ele>400.05</ele>
        <time>2019-01-07T08:44:14Z</time>
      </trkpt>
      <trkpt lat="44.03463" lon="5.19167">
        <ele>401.01</ele>
        <time>2019-01-07T08:44:29Z</time>
      </trkpt>
      <trkpt lat="44.03466" lon="5.1916">
        <ele>401.01</ele>
        <time>2019-01-07T08:44:41Z</time>
      </trkpt>
      <trkpt lat="44.0347" lon="5.19144">
        <ele>401.01</ele>
        <time>2019-01-07T08:44:52Z</time>
      </trkpt>
      <trkpt lat="44.03468" lon="5.1912">
        <ele>400.05</ele>
        <time>2019-01-07T08:45:09Z</time>
      </trkpt>
      <trkpt lat="44.03468" lon="5.19093">
        <ele>399.08</ele>
        <time>2019-01-07T08:45:24Z</time>
      </trkpt>
      <trkpt lat="44.03463" lon="5.19064">
        <ele>398.6</ele>
        <time>2019-01-07T08:45:41Z</time>
      </trkpt>
      <trkpt lat="44.0346" lon="5.19037">
        <ele>398.6</ele>
        <time>2019-01-07T08:45:58Z</time>
      </trkpt>
      <trkpt lat="44.03459" lon="5.19011">
        <ele>398.6</ele>
        <time>2019-01-07T08:46:17Z</time>
      </trkpt>
      <trkpt lat="44.03457" lon="5.18991">
        <ele>399.08</ele>
        <time>2019-01-07T08:46:34Z</time>
      </trkpt>
      <trkpt lat="44.03456" lon="5.18966">
        <ele>400.53</ele>
        <time>2019-01-07T08:46:52Z</time>
      </trkpt>
      <trkpt lat="44.03452" lon="5.18946">
        <ele>402.93</ele>
        <time>2019-01-07T08:47:12Z</time>
      </trkpt>
      <trkpt lat="44.03447" lon="5.18923">
        <ele>405.33</ele>
        <time>2019-01-07T08:47:32Z</time>
      </trkpt>
      <trkpt lat="44.0345" lon="5.18903">
        <ele>407.26</ele>
        <time>2019-01-07T08:47:51Z</time>
      </trkpt>
      <trkpt lat="44.03447" lon="5.18877">
        <ele>409.18</ele>
        <time>2019-01-07T08:48:10Z</time>
      </trkpt>
      <trkpt lat="44.0344" lon="5.18848">
        <ele>411.1</ele>
        <time>2019-01-07T08:48:31Z</time>
      </trkpt>
      <trkpt lat="44.03442" lon="5.18833">
        <ele>411.58</ele>
        <time>2019-01-07T08:48:47Z</time>
      </trkpt>
      <trkpt lat="44.03443" lon="5.18834">
        <ele>411.1</ele>
        <time>2019-01-07T08:49:21Z</time>
      </trkpt>
      <trkpt lat="44.03445" lon="5.18831">
        <ele>412.06</ele>
        <time>2019-01-07T08:50:39Z</time>
      </trkpt>
      <trkpt lat="44.03446" lon="5.18818">
        <ele>411.58</ele>
        <time>2019-01-07T08:50:58Z</time>
      </trkpt>
      <trkpt lat="44.03445" lon="5.18795">
        <ele>410.62</ele>
        <time>2019-01-07T08:51:16Z</time>
      </trkpt>
      <trkpt lat="44.03441" lon="5.18773">
        <ele>408.22</ele>
        <time>2019-01-07T08:51:32Z</time>
      </trkpt>
      <trkpt lat="44.03442" lon="5.18756">
        <ele>406.29</ele>
        <time>2019-01-07T08:51:49Z</time>
      </trkpt>
      <trkpt lat="44.03442" lon="5.18737">
        <ele>403.41</ele>
        <time>2019-01-07T08:52:10Z</time>
      </trkpt>
      <trkpt lat="44.03439" lon="5.18718">
        <ele>400.05</ele>
        <time>2019-01-07T08:52:27Z</time>
      </trkpt>
      <trkpt lat="44.03444" lon="5.18698">
        <ele>397.16</ele>
        <time>2019-01-07T08:52:44Z</time>
      </trkpt>
      <trkpt lat="44.03445" lon="5.18683">
        <ele>393.8</ele>
        <time>2019-01-07T08:52:59Z</time>
      </trkpt>
      <trkpt lat="44.03448" lon="5.18664">
        <ele>390.91</ele>
        <time>2019-01-07T08:53:15Z</time>
      </trkpt>
      <trkpt lat="44.03457" lon="5.18652">
        <ele>388.03</ele>
        <time>2019-01-07T08:53:33Z</time>
      </trkpt>
      <trkpt lat="44.03464" lon="5.18628">
        <ele>384.66</ele>
        <time>2019-01-07T08:53:53Z</time>
      </trkpt>
      <trkpt lat="44.03467" lon="5.18614">
        <ele>383.22</ele>
        <time>2019-01-07T08:54:05Z</time>
      </trkpt>
      <trkpt lat="44.0347" lon="5.18595">
        <ele>380.34</ele>
        <time>2019-01-07T08:54:21Z</time>
      </trkpt>
      <trkpt lat="44.03476" lon="5.18578">
        <ele>378.42</ele>
        <time>2019-01-07T08:54:38Z</time>
      </trkpt>
      <trkpt lat="44.03479" lon="5.18574">
        <ele>378.42</ele>
        <time>2019-01-07T08:54:42Z</time>
      </trkpt>
      <trkpt lat="44.03484" lon="5.18555">
        <ele>376.97</ele>
        <time>2019-01-07T08:54:59Z</time>
      </trkpt>
      <trkpt lat="44.03485" lon="5.18548">
        <ele>376.49</ele>
        <time>2019-01-07T08:55:04Z</time>
      </trkpt>
      <trkpt lat="44.03493" lon="5.18542">
        <ele>375.05</ele>
        <time>2019-01-07T08:55:21Z</time>
      </trkpt>
      <trkpt lat="44.03495" lon="5.18542">
        <ele>375.05</ele>
        <time>2019-01-07T08:55:23Z</time>
      </trkpt>
      <trkpt lat="44.03498" lon="5.18543">
        <ele>374.57</ele>
        <time>2019-01-07T08:55:26Z</time>
      </trkpt>
      <trkpt lat="44.03516" lon="5.18548">
        <ele>374.09</ele>
        <time>2019-01-07T08:55:46Z</time>
      </trkpt>
      <trkpt lat="44.03538" lon="5.18552">
        <ele>373.61</ele>
        <time>2019-01-07T08:56:05Z</time>
      </trkpt>
      <trkpt lat="44.03561" lon="5.18554">
        <ele>373.13</ele>
        <time>2019-01-07T08:56:26Z</time>
      </trkpt>
      <trkpt lat="44.03578" lon="5.18556">
        <ele>372.65</ele>
        <time>2019-01-07T08:56:41Z</time>
      </trkpt>
      <trkpt lat="44.03598" lon="5.1856">
        <ele>373.13</ele>
        <time>2019-01-07T08:56:58Z</time>
      </trkpt>
      <trkpt lat="44.03618" lon="5.18562">
        <ele>373.13</ele>
        <time>2019-01-07T08:57:17Z</time>
      </trkpt>
      <trkpt lat="44.03632" lon="5.18568">
        <ele>372.17</ele>
        <time>2019-01-07T08:57:35Z</time>
      </trkpt>
      <trkpt lat="44.03642" lon="5.18581">
        <ele>370.24</ele>
        <time>2019-01-07T08:57:48Z</time>
      </trkpt>
      <trkpt lat="44.03643" lon="5.18582">
        <ele>370.24</ele>
        <time>2019-01-07T08:57:50Z</time>
      </trkpt>
      <trkpt lat="44.0365" lon="5.18598">
        <ele>368.32</ele>
        <time>2019-01-07T08:58:07Z</time>
      </trkpt>
      <trkpt lat="44.03655" lon="5.1861">
        <ele>366.4</ele>
        <time>2019-01-07T08:58:20Z</time>
      </trkpt>
      <trkpt lat="44.03673" lon="5.18605">
        <ele>364</ele>
        <time>2019-01-07T08:58:37Z</time>
      </trkpt>
      <trkpt lat="44.03679" lon="5.18606">
        <ele>364</ele>
        <time>2019-01-07T08:58:43Z</time>
      </trkpt>
      <trkpt lat="44.03699" lon="5.18612">
        <ele>364.48</ele>
        <time>2019-01-07T08:59:02Z</time>
      </trkpt>
      <trkpt lat="44.03716" lon="5.18616">
        <ele>367.36</ele>
        <time>2019-01-07T08:59:21Z</time>
      </trkpt>
      <trkpt lat="44.03724" lon="5.18613">
        <ele>368.32</ele>
        <time>2019-01-07T08:59:29Z</time>
      </trkpt>
      <trkpt lat="44.03727" lon="5.18613">
        <ele>368.32</ele>
        <time>2019-01-07T08:59:31Z</time>
      </trkpt>
      <trkpt lat="44.03751" lon="5.18612">
        <ele>369.76</ele>
        <time>2019-01-07T08:59:51Z</time>
      </trkpt>
      <trkpt lat="44.03768" lon="5.186">
        <ele>371.21</ele>
        <time>2019-01-07T09:00:09Z</time>
      </trkpt>
      <trkpt lat="44.03784" lon="5.18594">
        <ele>372.17</ele>
        <time>2019-01-07T09:00:24Z</time>
      </trkpt>
      <trkpt lat="44.03784" lon="5.18596">
        <ele>372.65</ele>
        <time>2019-01-07T09:00:45Z</time>
      </trkpt>
      <trkpt lat="44.03788" lon="5.1859">
        <ele>372.65</ele>
        <time>2019-01-07T09:01:09Z</time>
      </trkpt>
      <trkpt lat="44.03792" lon="5.18586">
        <ele>372.65</ele>
        <time>2019-01-07T09:01:13Z</time>
      </trkpt>
      <trkpt lat="44.03806" lon="5.18579">
        <ele>373.13</ele>
        <time>2019-01-07T09:01:31Z</time>
      </trkpt>
      <trkpt lat="44.03822" lon="5.18579">
        <ele>373.13</ele>
        <time>2019-01-07T09:01:54Z</time>
      </trkpt>
      <trkpt lat="44.03822" lon="5.1858">
        <ele>371.69</ele>
        <time>2019-01-07T09:02:13Z</time>
      </trkpt>
      <trkpt lat="44.03821" lon="5.18579">
        <ele>371.21</ele>
        <time>2019-01-07T09:02:47Z</time>
      </trkpt>
      <trkpt lat="44.03822" lon="5.18579">
        <ele>371.21</ele>
        <time>2019-01-07T09:04:01Z</time>
      </trkpt>
      <trkpt lat="44.03824" lon="5.18582">
        <ele>371.21</ele>
        <time>2019-01-07T09:05:02Z</time>
      </trkpt>
      <trkpt lat="44.03825" lon="5.18578">
        <ele>371.21</ele>
        <time>2019-01-07T09:05:37Z</time>
      </trkpt>
      <trkpt lat="44.03818" lon="5.1858">
        <ele>371.21</ele>
        <time>2019-01-07T09:06:11Z</time>
      </trkpt>
      <trkpt lat="44.0382" lon="5.18583">
        <ele>371.21</ele>
        <time>2019-01-07T09:06:53Z</time>
      </trkpt>
      <trkpt lat="44.03824" lon="5.18585">
        <ele>371.21</ele>
        <time>2019-01-07T09:07:40Z</time>
      </trkpt>
      <trkpt lat="44.03824" lon="5.18582">
        <ele>371.21</ele>
        <time>2019-01-07T09:08:26Z</time>
      </trkpt>
      <trkpt lat="44.03823" lon="5.18584">
        <ele>371.21</ele>
        <time>2019-01-07T09:09:51Z</time>
      </trkpt>
      <trkpt lat="44.03822" lon="5.18582">
        <ele>371.21</ele>
        <time>2019-01-07T09:10:41Z</time>
      </trkpt>
      <trkpt lat="44.03827" lon="5.18582">
        <ele>371.21</ele>
        <time>2019-01-07T09:11:19Z</time>
      </trkpt>
      <trkpt lat="44.03822" lon="5.18579">
        <ele>371.21</ele>
        <time>2019-01-07T09:11:59Z</time>
      </trkpt>
      <trkpt lat="44.03822" lon="5.18576">
        <ele>371.21</ele>
        <time>2019-01-07T09:13:00Z</time>
      </trkpt>
      <trkpt lat="44.03821" lon="5.18576">
        <ele>371.21</ele>
        <time>2019-01-07T09:13:33Z</time>
      </trkpt>
      <trkpt lat="44.03819" lon="5.18571">
        <ele>371.21</ele>
        <time>2019-01-07T09:14:11Z</time>
      </trkpt>
      <trkpt lat="44.03819" lon="5.18567">
        <ele>371.21</ele>
        <time>2019-01-07T09:14:42Z</time>
      </trkpt>
      <trkpt lat="44.03821" lon="5.18569">
        <ele>371.21</ele>
        <time>2019-01-07T09:15:13Z</time>
      </trkpt>
      <trkpt lat="44.03822" lon="5.18569">
        <ele>371.21</ele>
        <time>2019-01-07T09:15:33Z</time>
      </trkpt>
      <trkpt lat="44.03825" lon="5.1857">
        <ele>371.21</ele>
        <time>2019-01-07T09:15:36Z</time>
      </trkpt>
      <trkpt lat="44.0384" lon="5.18568">
        <ele>371.21</ele>
        <time>2019-01-07T09:15:52Z</time>
      </trkpt>
      <trkpt lat="44.03847" lon="5.18562">
        <ele>373.61</ele>
        <time>2019-01-07T09:16:13Z</time>
      </trkpt>
      <trkpt lat="44.03854" lon="5.18555">
        <ele>376.01</ele>
        <time>2019-01-07T09:16:32Z</time>
      </trkpt>
      <trkpt lat="44.03869" lon="5.18561">
        <ele>376.97</ele>
        <time>2019-01-07T09:16:49Z</time>
      </trkpt>
      <trkpt lat="44.03884" lon="5.18562">
        <ele>378.42</ele>
        <time>2019-01-07T09:17:10Z</time>
      </trkpt>
      <trkpt lat="44.03904" lon="5.18563">
        <ele>380.34</ele>
        <time>2019-01-07T09:17:34Z</time>
      </trkpt>
      <trkpt lat="44.0392" lon="5.18575">
        <ele>381.78</ele>
        <time>2019-01-07T09:17:58Z</time>
      </trkpt>
      <trkpt lat="44.03923" lon="5.18577">
        <ele>381.78</ele>
        <time>2019-01-07T09:18:02Z</time>
      </trkpt>
      <trkpt lat="44.0394" lon="5.18573">
        <ele>383.7</ele>
        <time>2019-01-07T09:18:22Z</time>
      </trkpt>
      <trkpt lat="44.0396" lon="5.18571">
        <ele>385.15</ele>
        <time>2019-01-07T09:18:45Z</time>
      </trkpt>
      <trkpt lat="44.03981" lon="5.1856">
        <ele>385.63</ele>
        <time>2019-01-07T09:19:08Z</time>
      </trkpt>
      <trkpt lat="44.03997" lon="5.18568">
        <ele>385.63</ele>
        <time>2019-01-07T09:19:26Z</time>
      </trkpt>
      <trkpt lat="44.04" lon="5.18568">
        <ele>385.63</ele>
        <time>2019-01-07T09:19:28Z</time>
      </trkpt>
      <trkpt lat="44.04011" lon="5.18566">
        <ele>388.03</ele>
        <time>2019-01-07T09:19:45Z</time>
      </trkpt>
      <trkpt lat="44.0402" lon="5.18555">
        <ele>391.39</ele>
        <time>2019-01-07T09:20:06Z</time>
      </trkpt>
      <trkpt lat="44.04029" lon="5.18551">
        <ele>393.8</ele>
        <time>2019-01-07T09:20:31Z</time>
      </trkpt>
      <trkpt lat="44.04033" lon="5.18548">
        <ele>396.2</ele>
        <time>2019-01-07T09:20:53Z</time>
      </trkpt>
      <trkpt lat="44.04039" lon="5.18541">
        <ele>398.6</ele>
        <time>2019-01-07T09:21:15Z</time>
      </trkpt>
      <trkpt lat="44.04044" lon="5.18534">
        <ele>401.01</ele>
        <time>2019-01-07T09:21:31Z</time>
      </trkpt>
      <trkpt lat="44.04048" lon="5.18528">
        <ele>404.37</ele>
        <time>2019-01-07T09:21:52Z</time>
      </trkpt>
      <trkpt lat="44.04056" lon="5.18525">
        <ele>407.26</ele>
        <time>2019-01-07T09:22:11Z</time>
      </trkpt>
      <trkpt lat="44.04053" lon="5.18528">
        <ele>407.26</ele>
        <time>2019-01-07T09:22:43Z</time>
      </trkpt>
      <trkpt lat="44.04058" lon="5.18528">
        <ele>408.7</ele>
        <time>2019-01-07T09:23:31Z</time>
      </trkpt>
      <trkpt lat="44.04066" lon="5.18524">
        <ele>411.58</ele>
        <time>2019-01-07T09:23:47Z</time>
      </trkpt>
      <trkpt lat="44.0407" lon="5.18515">
        <ele>414.47</ele>
        <time>2019-01-07T09:24:06Z</time>
      </trkpt>
      <trkpt lat="44.04072" lon="5.18508">
        <ele>417.83</ele>
        <time>2019-01-07T09:24:26Z</time>
      </trkpt>
      <trkpt lat="44.04077" lon="5.18504">
        <ele>417.83</ele>
        <time>2019-01-07T09:24:58Z</time>
      </trkpt>
      <trkpt lat="44.04074" lon="5.1851">
        <ele>417.83</ele>
        <time>2019-01-07T09:25:28Z</time>
      </trkpt>
      <trkpt lat="44.04068" lon="5.18519">
        <ele>417.83</ele>
        <time>2019-01-07T09:26:00Z</time>
      </trkpt>
      <trkpt lat="44.0407" lon="5.18517">
        <ele>417.83</ele>
        <time>2019-01-07T09:26:30Z</time>
      </trkpt>
      <trkpt lat="44.04066" lon="5.1852">
        <ele>417.83</ele>
        <time>2019-01-07T09:27:03Z</time>
      </trkpt>
      <trkpt lat="44.04068" lon="5.18519">
        <ele>417.83</ele>
        <time>2019-01-07T09:27:34Z</time>
      </trkpt>
      <trkpt lat="44.04069" lon="5.18514">
        <ele>417.83</ele>
        <time>2019-01-07T09:28:06Z</time>
      </trkpt>
      <trkpt lat="44.04068" lon="5.18517">
        <ele>417.83</ele>
        <time>2019-01-07T09:28:33Z</time>
      </trkpt>
      <trkpt lat="44.04073" lon="5.18517">
        <ele>417.83</ele>
        <time>2019-01-07T09:29:00Z</time>
      </trkpt>
      <trkpt lat="44.04078" lon="5.18514">
        <ele>417.83</ele>
        <time>2019-01-07T09:29:25Z</time>
      </trkpt>
      <trkpt lat="44.04078" lon="5.18509">
        <ele>417.83</ele>
        <time>2019-01-07T09:29:49Z</time>
      </trkpt>
      <trkpt lat="44.04076" lon="5.18512">
        <ele>417.83</ele>
        <time>2019-01-07T09:30:24Z</time>
      </trkpt>
      <trkpt lat="44.04078" lon="5.18507">
        <ele>417.83</ele>
        <time>2019-01-07T09:30:47Z</time>
      </trkpt>
      <trkpt lat="44.04077" lon="5.18509">
        <ele>417.83</ele>
        <time>2019-01-07T09:31:21Z</time>
      </trkpt>
      <trkpt lat="44.04084" lon="5.18513">
        <ele>417.83</ele>
        <time>2019-01-07T09:31:48Z</time>
      </trkpt>
      <trkpt lat="44.04098" lon="5.18521">
        <ele>417.83</ele>
        <time>2019-01-07T09:32:13Z</time>
      </trkpt>
      <trkpt lat="44.04118" lon="5.18511">
        <ele>417.83</ele>
        <time>2019-01-07T09:32:37Z</time>
      </trkpt>
      <trkpt lat="44.04135" lon="5.18499">
        <ele>426</ele>
        <time>2019-01-07T09:32:59Z</time>
      </trkpt>
      <trkpt lat="44.04136" lon="5.18498">
        <ele>426</ele>
        <time>2019-01-07T09:33:00Z</time>
      </trkpt>
      <trkpt lat="44.04142" lon="5.18491">
        <ele>426.48</ele>
        <time>2019-01-07T09:33:07Z</time>
      </trkpt>
      <trkpt lat="44.04158" lon="5.18478">
        <ele>428.4</ele>
        <time>2019-01-07T09:33:25Z</time>
      </trkpt>
      <trkpt lat="44.04171" lon="5.18469">
        <ele>430.33</ele>
        <time>2019-01-07T09:33:42Z</time>
      </trkpt>
      <trkpt lat="44.04184" lon="5.18459">
        <ele>433.21</ele>
        <time>2019-01-07T09:34:01Z</time>
      </trkpt>
      <trkpt lat="44.042" lon="5.18447">
        <ele>435.61</ele>
        <time>2019-01-07T09:34:23Z</time>
      </trkpt>
      <trkpt lat="44.04209" lon="5.18436">
        <ele>437.06</ele>
        <time>2019-01-07T09:34:34Z</time>
      </trkpt>
      <trkpt lat="44.04221" lon="5.18424">
        <ele>438.5</ele>
        <time>2019-01-07T09:34:51Z</time>
      </trkpt>
      <trkpt lat="44.04231" lon="5.18404">
        <ele>439.46</ele>
        <time>2019-01-07T09:35:08Z</time>
      </trkpt>
      <trkpt lat="44.04237" lon="5.18386">
        <ele>440.42</ele>
        <time>2019-01-07T09:35:23Z</time>
      </trkpt>
      <trkpt lat="44.04243" lon="5.1837">
        <ele>441.38</ele>
        <time>2019-01-07T09:35:35Z</time>
      </trkpt>
      <trkpt lat="44.04244" lon="5.18369">
        <ele>441.86</ele>
        <time>2019-01-07T09:35:36Z</time>
      </trkpt>
      <trkpt lat="44.04246" lon="5.18359">
        <ele>443.31</ele>
        <time>2019-01-07T09:35:54Z</time>
      </trkpt>
      <trkpt lat="44.04248" lon="5.18354">
        <ele>443.31</ele>
        <time>2019-01-07T09:36:17Z</time>
      </trkpt>
      <trkpt lat="44.04249" lon="5.18332">
        <ele>444.75</ele>
        <time>2019-01-07T09:36:35Z</time>
      </trkpt>
      <trkpt lat="44.04243" lon="5.18321">
        <ele>446.19</ele>
        <time>2019-01-07T09:36:54Z</time>
      </trkpt>
      <trkpt lat="44.04245" lon="5.18308">
        <ele>446.67</ele>
        <time>2019-01-07T09:37:05Z</time>
      </trkpt>
      <trkpt lat="44.04253" lon="5.18289">
        <ele>445.23</ele>
        <time>2019-01-07T09:37:25Z</time>
      </trkpt>
      <trkpt lat="44.04251" lon="5.18286">
        <ele>444.27</ele>
        <time>2019-01-07T09:37:48Z</time>
      </trkpt>
      <trkpt lat="44.04252" lon="5.18285">
        <ele>444.27</ele>
        <time>2019-01-07T09:38:27Z</time>
      </trkpt>
      <trkpt lat="44.04256" lon="5.18277">
        <ele>443.31</ele>
        <time>2019-01-07T09:38:51Z</time>
      </trkpt>
      <trkpt lat="44.04261" lon="5.18255">
        <ele>440.9</ele>
        <time>2019-01-07T09:39:14Z</time>
      </trkpt>
      <trkpt lat="44.04263" lon="5.18229">
        <ele>438.98</ele>
        <time>2019-01-07T09:39:37Z</time>
      </trkpt>
      <trkpt lat="44.04266" lon="5.18214">
        <ele>437.54</ele>
        <time>2019-01-07T09:39:55Z</time>
      </trkpt>
      <trkpt lat="44.04263" lon="5.18227">
        <ele>438.02</ele>
        <time>2019-01-07T09:40:16Z</time>
      </trkpt>
      <trkpt lat="44.04262" lon="5.18238">
        <ele>439.46</ele>
        <time>2019-01-07T09:40:31Z</time>
      </trkpt>
      <trkpt lat="44.04263" lon="5.1825">
        <ele>440.9</ele>
        <time>2019-01-07T09:40:48Z</time>
      </trkpt>
      <trkpt lat="44.04272" lon="5.1824">
        <ele>440.9</ele>
        <time>2019-01-07T09:41:11Z</time>
      </trkpt>
      <trkpt lat="44.04284" lon="5.18225">
        <ele>439.46</ele>
        <time>2019-01-07T09:41:34Z</time>
      </trkpt>
      <trkpt lat="44.04295" lon="5.18205">
        <ele>438.98</ele>
        <time>2019-01-07T09:41:54Z</time>
      </trkpt>
      <trkpt lat="44.04303" lon="5.18196">
        <ele>438.5</ele>
        <time>2019-01-07T09:42:07Z</time>
      </trkpt>
      <trkpt lat="44.04316" lon="5.18188">
        <ele>438.5</ele>
        <time>2019-01-07T09:42:26Z</time>
      </trkpt>
      <trkpt lat="44.04324" lon="5.18175">
        <ele>435.61</ele>
        <time>2019-01-07T09:42:49Z</time>
      </trkpt>
      <trkpt lat="44.04327" lon="5.18164">
        <ele>434.17</ele>
        <time>2019-01-07T09:43:05Z</time>
      </trkpt>
      <trkpt lat="44.04334" lon="5.1815">
        <ele>431.29</ele>
        <time>2019-01-07T09:43:24Z</time>
      </trkpt>
      <trkpt lat="44.04343" lon="5.18136">
        <ele>428.4</ele>
        <time>2019-01-07T09:43:48Z</time>
      </trkpt>
      <trkpt lat="44.04338" lon="5.18116">
        <ele>425.04</ele>
        <time>2019-01-07T09:44:09Z</time>
      </trkpt>
      <trkpt lat="44.04332" lon="5.1811">
        <ele>424.08</ele>
        <time>2019-01-07T09:44:28Z</time>
      </trkpt>
      <trkpt lat="44.04335" lon="5.18102">
        <ele>421.19</ele>
        <time>2019-01-07T09:44:42Z</time>
      </trkpt>
      <trkpt lat="44.04347" lon="5.18102">
        <ele>417.83</ele>
        <time>2019-01-07T09:44:57Z</time>
      </trkpt>
      <trkpt lat="44.04358" lon="5.18093">
        <ele>414.95</ele>
        <time>2019-01-07T09:45:10Z</time>
      </trkpt>
      <trkpt lat="44.04367" lon="5.18098">
        <ele>412.06</ele>
        <time>2019-01-07T09:45:27Z</time>
      </trkpt>
      <trkpt lat="44.04372" lon="5.18093">
        <ele>410.14</ele>
        <time>2019-01-07T09:45:42Z</time>
      </trkpt>
      <trkpt lat="44.04371" lon="5.1809">
        <ele>410.14</ele>
        <time>2019-01-07T09:46:08Z</time>
      </trkpt>
      <trkpt lat="44.04373" lon="5.18095">
        <ele>409.66</ele>
        <time>2019-01-07T09:46:33Z</time>
      </trkpt>
      <trkpt lat="44.04376" lon="5.18096">
        <ele>409.66</ele>
        <time>2019-01-07T09:47:02Z</time>
      </trkpt>
      <trkpt lat="44.0438" lon="5.18087">
        <ele>408.22</ele>
        <time>2019-01-07T09:47:27Z</time>
      </trkpt>
      <trkpt lat="44.04386" lon="5.18079">
        <ele>405.33</ele>
        <time>2019-01-07T09:47:44Z</time>
      </trkpt>
      <trkpt lat="44.04393" lon="5.18071">
        <ele>401.97</ele>
        <time>2019-01-07T09:48:03Z</time>
      </trkpt>
      <trkpt lat="44.04399" lon="5.18056">
        <ele>399.08</ele>
        <time>2019-01-07T09:48:20Z</time>
      </trkpt>
      <trkpt lat="44.0441" lon="5.18041">
        <ele>396.2</ele>
        <time>2019-01-07T09:48:42Z</time>
      </trkpt>
      <trkpt lat="44.04425" lon="5.18033">
        <ele>392.84</ele>
        <time>2019-01-07T09:49:04Z</time>
      </trkpt>
      <trkpt lat="44.04435" lon="5.18016">
        <ele>391.39</ele>
        <time>2019-01-07T09:49:23Z</time>
      </trkpt>
      <trkpt lat="44.04444" lon="5.18002">
        <ele>388.51</ele>
        <time>2019-01-07T09:49:45Z</time>
      </trkpt>
      <trkpt lat="44.04451" lon="5.17984">
        <ele>386.59</ele>
        <time>2019-01-07T09:50:04Z</time>
      </trkpt>
      <trkpt lat="44.04464" lon="5.17972">
        <ele>384.18</ele>
        <time>2019-01-07T09:50:27Z</time>
      </trkpt>
      <trkpt lat="44.04474" lon="5.17959">
        <ele>382.26</ele>
        <time>2019-01-07T09:50:39Z</time>
      </trkpt>
      <trkpt lat="44.04485" lon="5.17952">
        <ele>381.78</ele>
        <time>2019-01-07T09:50:51Z</time>
      </trkpt>
      <trkpt lat="44.04486" lon="5.17952">
        <ele>380.34</ele>
        <time>2019-01-07T09:51:21Z</time>
      </trkpt>
      <trkpt lat="44.04486" lon="5.17952">
        <ele>380.34</ele>
        <time>2019-01-07T09:52:08Z</time>
      </trkpt>
      <trkpt lat="44.04487" lon="5.17949">
        <ele>380.34</ele>
        <time>2019-01-07T09:53:00Z</time>
      </trkpt>
      <trkpt lat="44.04484" lon="5.17948">
        <ele>380.34</ele>
        <time>2019-01-07T09:53:27Z</time>
      </trkpt>
      <trkpt lat="44.04485" lon="5.17947">
        <ele>380.34</ele>
        <time>2019-01-07T09:53:50Z</time>
      </trkpt>
      <trkpt lat="44.04485" lon="5.17951">
        <ele>380.34</ele>
        <time>2019-01-07T09:54:23Z</time>
      </trkpt>
      <trkpt lat="44.04484" lon="5.17952">
        <ele>380.34</ele>
        <time>2019-01-07T09:54:52Z</time>
      </trkpt>
      <trkpt lat="44.04484" lon="5.17951">
        <ele>380.34</ele>
        <time>2019-01-07T09:55:22Z</time>
      </trkpt>
      <trkpt lat="44.04484" lon="5.17952">
        <ele>380.34</ele>
        <time>2019-01-07T09:55:45Z</time>
      </trkpt>
      <trkpt lat="44.04494" lon="5.17949">
        <ele>380.34</ele>
        <time>2019-01-07T09:56:06Z</time>
      </trkpt>
      <trkpt lat="44.04505" lon="5.17943">
        <ele>380.34</ele>
        <time>2019-01-07T09:56:25Z</time>
      </trkpt>
      <trkpt lat="44.04504" lon="5.17928">
        <ele>376.01</ele>
        <time>2019-01-07T09:56:39Z</time>
      </trkpt>
      <trkpt lat="44.04504" lon="5.17927">
        <ele>376.01</ele>
        <time>2019-01-07T09:56:40Z</time>
      </trkpt>
      <trkpt lat="44.04495" lon="5.17904">
        <ele>373.13</ele>
        <time>2019-01-07T09:57:01Z</time>
      </trkpt>
      <trkpt lat="44.04503" lon="5.17893">
        <ele>371.21</ele>
        <time>2019-01-07T09:57:20Z</time>
      </trkpt>
      <trkpt lat="44.04519" lon="5.17893">
        <ele>369.28</ele>
        <time>2019-01-07T09:57:38Z</time>
      </trkpt>
      <trkpt lat="44.04536" lon="5.17902">
        <ele>367.36</ele>
        <time>2019-01-07T09:57:57Z</time>
      </trkpt>
      <trkpt lat="44.04551" lon="5.17905">
        <ele>364.48</ele>
        <time>2019-01-07T09:58:16Z</time>
      </trkpt>
      <trkpt lat="44.04561" lon="5.17891">
        <ele>361.11</ele>
        <time>2019-01-07T09:58:32Z</time>
      </trkpt>
      <trkpt lat="44.04576" lon="5.17879">
        <ele>358.23</ele>
        <time>2019-01-07T09:58:50Z</time>
      </trkpt>
      <trkpt lat="44.04577" lon="5.17879">
        <ele>357.75</ele>
        <time>2019-01-07T09:58:52Z</time>
      </trkpt>
      <trkpt lat="44.04584" lon="5.17874">
        <ele>355.83</ele>
        <time>2019-01-07T09:59:01Z</time>
      </trkpt>
      <trkpt lat="44.04587" lon="5.17869">
        <ele>355.34</ele>
        <time>2019-01-07T09:59:04Z</time>
      </trkpt>
      <trkpt lat="44.04595" lon="5.17849">
        <ele>352.94</ele>
        <time>2019-01-07T09:59:23Z</time>
      </trkpt>
      <trkpt lat="44.04599" lon="5.17829">
        <ele>351.02</ele>
        <time>2019-01-07T09:59:46Z</time>
      </trkpt>
      <trkpt lat="44.04598" lon="5.17821">
        <ele>349.58</ele>
        <time>2019-01-07T10:00:07Z</time>
      </trkpt>
      <trkpt lat="44.04599" lon="5.17823">
        <ele>349.58</ele>
        <time>2019-01-07T10:00:48Z</time>
      </trkpt>
      <trkpt lat="44.04597" lon="5.17831">
        <ele>349.58</ele>
        <time>2019-01-07T10:01:23Z</time>
      </trkpt>
      <trkpt lat="44.04596" lon="5.17832">
        <ele>349.58</ele>
        <time>2019-01-07T10:01:54Z</time>
      </trkpt>
      <trkpt lat="44.04595" lon="5.1783">
        <ele>349.1</ele>
        <time>2019-01-07T10:02:20Z</time>
      </trkpt>
      <trkpt lat="44.04595" lon="5.17811">
        <ele>349.1</ele>
        <time>2019-01-07T10:02:41Z</time>
      </trkpt>
      <trkpt lat="44.04594" lon="5.17802">
        <ele>346.69</ele>
        <time>2019-01-07T10:02:50Z</time>
      </trkpt>
      <trkpt lat="44.04581" lon="5.17784">
        <ele>345.73</ele>
        <time>2019-01-07T10:03:13Z</time>
      </trkpt>
      <trkpt lat="44.04579" lon="5.17763">
        <ele>344.29</ele>
        <time>2019-01-07T10:03:31Z</time>
      </trkpt>
      <trkpt lat="44.04579" lon="5.17762">
        <ele>343.81</ele>
        <time>2019-01-07T10:03:32Z</time>
      </trkpt>
      <trkpt lat="44.04574" lon="5.17736">
        <ele>341.89</ele>
        <time>2019-01-07T10:03:53Z</time>
      </trkpt>
      <trkpt lat="44.04564" lon="5.17719">
        <ele>341.41</ele>
        <time>2019-01-07T10:04:10Z</time>
      </trkpt>
      <trkpt lat="44.04547" lon="5.17695">
        <ele>341.41</ele>
        <time>2019-01-07T10:04:32Z</time>
      </trkpt>
      <trkpt lat="44.04537" lon="5.17683">
        <ele>341.41</ele>
        <time>2019-01-07T10:04:47Z</time>
      </trkpt>
      <trkpt lat="44.04537" lon="5.17663">
        <ele>339.96</ele>
        <time>2019-01-07T10:05:06Z</time>
      </trkpt>
      <trkpt lat="44.04519" lon="5.17648">
        <ele>337.08</ele>
        <time>2019-01-07T10:05:26Z</time>
      </trkpt>
      <trkpt lat="44.04504" lon="5.17634">
        <ele>334.2</ele>
        <time>2019-01-07T10:05:45Z</time>
      </trkpt>
      <trkpt lat="44.04489" lon="5.17615">
        <ele>331.31</ele>
        <time>2019-01-07T10:06:08Z</time>
      </trkpt>
      <trkpt lat="44.04471" lon="5.1759">
        <ele>329.39</ele>
        <time>2019-01-07T10:06:31Z</time>
      </trkpt>
      <trkpt lat="44.04448" lon="5.17572">
        <ele>326.5</ele>
        <time>2019-01-07T10:06:57Z</time>
      </trkpt>
      <trkpt lat="44.04442" lon="5.1755">
        <ele>324.1</ele>
        <time>2019-01-07T10:07:16Z</time>
      </trkpt>
      <trkpt lat="44.04447" lon="5.17532">
        <ele>322.18</ele>
        <time>2019-01-07T10:07:34Z</time>
      </trkpt>
      <trkpt lat="44.04443" lon="5.17515">
        <ele>321.7</ele>
        <time>2019-01-07T10:07:52Z</time>
      </trkpt>
      <trkpt lat="44.04427" lon="5.17503">
        <ele>319.78</ele>
        <time>2019-01-07T10:08:14Z</time>
      </trkpt>
      <trkpt lat="44.04407" lon="5.17506">
        <ele>318.81</ele>
        <time>2019-01-07T10:08:38Z</time>
      </trkpt>
      <trkpt lat="44.04394" lon="5.17503">
        <ele>317.37</ele>
        <time>2019-01-07T10:08:53Z</time>
      </trkpt>
      <trkpt lat="44.0438" lon="5.17499">
        <ele>316.41</ele>
        <time>2019-01-07T10:09:07Z</time>
      </trkpt>
      <trkpt lat="44.04379" lon="5.17497">
        <ele>314.97</ele>
        <time>2019-01-07T10:09:49Z</time>
      </trkpt>
      <trkpt lat="44.04378" lon="5.17499">
        <ele>314.97</ele>
        <time>2019-01-07T10:10:09Z</time>
      </trkpt>
      <trkpt lat="44.0437" lon="5.17496">
        <ele>315.45</ele>
        <time>2019-01-07T10:10:15Z</time>
      </trkpt>
      <trkpt lat="44.04359" lon="5.17493">
        <ele>314.97</ele>
        <time>2019-01-07T10:10:27Z</time>
      </trkpt>
      <trkpt lat="44.04355" lon="5.1749">
        <ele>314.49</ele>
        <time>2019-01-07T10:10:31Z</time>
      </trkpt>
      <trkpt lat="44.04338" lon="5.17481">
        <ele>313.53</ele>
        <time>2019-01-07T10:10:50Z</time>
      </trkpt>
      <trkpt lat="44.04325" lon="5.17462">
        <ele>312.57</ele>
        <time>2019-01-07T10:11:06Z</time>
      </trkpt>
      <trkpt lat="44.04323" lon="5.17456">
        <ele>312.57</ele>
        <time>2019-01-07T10:11:12Z</time>
      </trkpt>
      <trkpt lat="44.0432" lon="5.17447">
        <ele>312.09</ele>
        <time>2019-01-07T10:11:18Z</time>
      </trkpt>
      <trkpt lat="44.04315" lon="5.17421">
        <ele>311.6</ele>
        <time>2019-01-07T10:11:35Z</time>
      </trkpt>
      <trkpt lat="44.04319" lon="5.17388">
        <ele>311.12</ele>
        <time>2019-01-07T10:11:53Z</time>
      </trkpt>
      <trkpt lat="44.04326" lon="5.17366">
        <ele>310.16</ele>
        <time>2019-01-07T10:12:08Z</time>
      </trkpt>
      <trkpt lat="44.04334" lon="5.17341">
        <ele>308.24</ele>
        <time>2019-01-07T10:12:28Z</time>
      </trkpt>
      <trkpt lat="44.04332" lon="5.17322">
        <ele>306.8</ele>
        <time>2019-01-07T10:12:45Z</time>
      </trkpt>
      <trkpt lat="44.04325" lon="5.17311">
        <ele>305.84</ele>
        <time>2019-01-07T10:12:56Z</time>
      </trkpt>
      <trkpt lat="44.04312" lon="5.17287">
        <ele>302.95</ele>
        <time>2019-01-07T10:13:17Z</time>
      </trkpt>
      <trkpt lat="44.04304" lon="5.17272">
        <ele>301.03</ele>
        <time>2019-01-07T10:13:32Z</time>
      </trkpt>
      <trkpt lat="44.04291" lon="5.17246">
        <ele>298.63</ele>
        <time>2019-01-07T10:13:51Z</time>
      </trkpt>
      <trkpt lat="44.04277" lon="5.17232">
        <ele>297.67</ele>
        <time>2019-01-07T10:14:07Z</time>
      </trkpt>
      <trkpt lat="44.04261" lon="5.17217">
        <ele>297.18</ele>
        <time>2019-01-07T10:14:23Z</time>
      </trkpt>
      <trkpt lat="44.04249" lon="5.17208">
        <ele>296.22</ele>
        <time>2019-01-07T10:14:41Z</time>
      </trkpt>
      <trkpt lat="44.04246" lon="5.17201">
        <ele>295.74</ele>
        <time>2019-01-07T10:14:50Z</time>
      </trkpt>
      <trkpt lat="44.04234" lon="5.17179">
        <ele>294.78</ele>
        <time>2019-01-07T10:15:08Z</time>
      </trkpt>
      <trkpt lat="44.04232" lon="5.17177">
        <ele>294.3</ele>
        <time>2019-01-07T10:15:10Z</time>
      </trkpt>
      <trkpt lat="44.04211" lon="5.17165">
        <ele>292.86</ele>
        <time>2019-01-07T10:15:30Z</time>
      </trkpt>
      <trkpt lat="44.0419" lon="5.17152">
        <ele>291.42</ele>
        <time>2019-01-07T10:15:49Z</time>
      </trkpt>
      <trkpt lat="44.04175" lon="5.17144">
        <ele>290.94</ele>
        <time>2019-01-07T10:16:04Z</time>
      </trkpt>
      <trkpt lat="44.04159" lon="5.17134">
        <ele>290.94</ele>
        <time>2019-01-07T10:16:19Z</time>
      </trkpt>
      <trkpt lat="44.04139" lon="5.17124">
        <ele>290.94</ele>
        <time>2019-01-07T10:16:36Z</time>
      </trkpt>
      <trkpt lat="44.04121" lon="5.17113">
        <ele>289.97</ele>
        <time>2019-01-07T10:16:53Z</time>
      </trkpt>
      <trkpt lat="44.041" lon="5.17101">
        <ele>289.97</ele>
        <time>2019-01-07T10:17:11Z</time>
      </trkpt>
      <trkpt lat="44.04081" lon="5.17087">
        <ele>289.49</ele>
        <time>2019-01-07T10:17:27Z</time>
      </trkpt>
      <trkpt lat="44.04064" lon="5.17076">
        <ele>289.01</ele>
        <time>2019-01-07T10:17:43Z</time>
      </trkpt>
      <trkpt lat="44.04048" lon="5.17066">
        <ele>287.57</ele>
        <time>2019-01-07T10:17:59Z</time>
      </trkpt>
      <trkpt lat="44.0403" lon="5.17055">
        <ele>285.17</ele>
        <time>2019-01-07T10:18:16Z</time>
      </trkpt>
      <trkpt lat="44.0401" lon="5.17035">
        <ele>284.21</ele>
        <time>2019-01-07T10:18:37Z</time>
      </trkpt>
      <trkpt lat="44.03998" lon="5.17021">
        <ele>283.73</ele>
        <time>2019-01-07T10:18:56Z</time>
      </trkpt>
      <trkpt lat="44.03997" lon="5.1702">
        <ele>283.73</ele>
        <time>2019-01-07T10:19:00Z</time>
      </trkpt>
      <trkpt lat="44.03983" lon="5.17002">
        <ele>282.77</ele>
        <time>2019-01-07T10:19:15Z</time>
      </trkpt>
      <trkpt lat="44.0397" lon="5.1699">
        <ele>281.32</ele>
        <time>2019-01-07T10:19:28Z</time>
      </trkpt>
      <trkpt lat="44.03959" lon="5.16976">
        <ele>279.88</ele>
        <time>2019-01-07T10:19:42Z</time>
      </trkpt>
      <trkpt lat="44.03953" lon="5.16961">
        <ele>278.92</ele>
        <time>2019-01-07T10:19:59Z</time>
      </trkpt>
      <trkpt lat="44.03954" lon="5.16956">
        <ele>277.96</ele>
        <time>2019-01-07T10:20:07Z</time>
      </trkpt>
      <trkpt lat="44.03958" lon="5.16952">
        <ele>275.56</ele>
        <time>2019-01-07T10:20:23Z</time>
      </trkpt>
      <trkpt lat="44.03962" lon="5.16951">
        <ele>275.56</ele>
        <time>2019-01-07T10:20:56Z</time>
      </trkpt>
      <trkpt lat="44.03967" lon="5.1695">
        <ele>275.56</ele>
        <time>2019-01-07T10:21:23Z</time>
      </trkpt>
      <trkpt lat="44.03971" lon="5.16953">
        <ele>275.56</ele>
        <time>2019-01-07T10:21:31Z</time>
      </trkpt>
      <trkpt lat="44.0397" lon="5.16957">
        <ele>276.04</ele>
        <time>2019-01-07T10:22:00Z</time>
      </trkpt>
      <trkpt lat="44.03992" lon="5.16962">
        <ele>276.04</ele>
        <time>2019-01-07T10:22:18Z</time>
      </trkpt>
      <trkpt lat="44.04012" lon="5.16968">
        <ele>276.04</ele>
        <time>2019-01-07T10:22:33Z</time>
      </trkpt>
      <trkpt lat="44.04016" lon="5.16968">
        <ele>276.52</ele>
        <time>2019-01-07T10:22:36Z</time>
      </trkpt>
      <trkpt lat="44.04021" lon="5.16972">
        <ele>276.04</ele>
        <time>2019-01-07T10:22:53Z</time>
      </trkpt>
      <trkpt lat="44.04032" lon="5.16974">
        <ele>276.04</ele>
        <time>2019-01-07T10:23:06Z</time>
      </trkpt>
      <trkpt lat="44.04035" lon="5.16975">
        <ele>276.04</ele>
        <time>2019-01-07T10:23:08Z</time>
      </trkpt>
      <trkpt lat="44.04056" lon="5.16973">
        <ele>275.56</ele>
        <time>2019-01-07T10:23:27Z</time>
      </trkpt>
      <trkpt lat="44.04082" lon="5.16966">
        <ele>275.56</ele>
        <time>2019-01-07T10:23:46Z</time>
      </trkpt>
      <trkpt lat="44.04085" lon="5.16965">
        <ele>275.56</ele>
        <time>2019-01-07T10:23:48Z</time>
      </trkpt>
      <trkpt lat="44.04107" lon="5.16954">
        <ele>275.07</ele>
        <time>2019-01-07T10:24:04Z</time>
      </trkpt>
      <trkpt lat="44.04112" lon="5.16951">
        <ele>275.07</ele>
        <time>2019-01-07T10:24:09Z</time>
      </trkpt>
      <trkpt lat="44.04129" lon="5.16949">
        <ele>274.59</ele>
        <time>2019-01-07T10:24:24Z</time>
      </trkpt>
      <trkpt lat="44.04138" lon="5.16951">
        <ele>274.11</ele>
        <time>2019-01-07T10:24:31Z</time>
      </trkpt>
      <trkpt lat="44.04146" lon="5.16952">
        <ele>273.63</ele>
        <time>2019-01-07T10:24:39Z</time>
      </trkpt>
      <trkpt lat="44.04163" lon="5.16948">
        <ele>272.67</ele>
        <time>2019-01-07T10:24:54Z</time>
      </trkpt>
      <trkpt lat="44.04178" lon="5.16936">
        <ele>271.23</ele>
        <time>2019-01-07T10:25:11Z</time>
      </trkpt>
      <trkpt lat="44.04189" lon="5.16925">
        <ele>269.31</ele>
        <time>2019-01-07T10:25:32Z</time>
      </trkpt>
      <trkpt lat="44.04193" lon="5.16926">
        <ele>269.31</ele>
        <time>2019-01-07T10:25:35Z</time>
      </trkpt>
      <trkpt lat="44.04195" lon="5.16926">
        <ele>269.31</ele>
        <time>2019-01-07T10:25:37Z</time>
      </trkpt>
      <trkpt lat="44.04211" lon="5.16926">
        <ele>268.35</ele>
        <time>2019-01-07T10:25:50Z</time>
      </trkpt>
      <trkpt lat="44.04224" lon="5.16922">
        <ele>267.86</ele>
        <time>2019-01-07T10:26:04Z</time>
      </trkpt>
      <trkpt lat="44.04228" lon="5.16921">
        <ele>267.86</ele>
        <time>2019-01-07T10:26:08Z</time>
      </trkpt>
      <trkpt lat="44.04243" lon="5.16912">
        <ele>267.38</ele>
        <time>2019-01-07T10:26:24Z</time>
      </trkpt>
      <trkpt lat="44.04265" lon="5.16895">
        <ele>266.42</ele>
        <time>2019-01-07T10:26:46Z</time>
      </trkpt>
      <trkpt lat="44.04286" lon="5.16882">
        <ele>265.46</ele>
        <time>2019-01-07T10:27:07Z</time>
      </trkpt>
      <trkpt lat="44.04301" lon="5.16868">
        <ele>264.5</ele>
        <time>2019-01-07T10:27:23Z</time>
      </trkpt>
      <trkpt lat="44.04315" lon="5.16851">
        <ele>262.58</ele>
        <time>2019-01-07T10:27:42Z</time>
      </trkpt>
      <trkpt lat="44.04337" lon="5.16835">
        <ele>260.65</ele>
        <time>2019-01-07T10:28:04Z</time>
      </trkpt>
      <trkpt lat="44.04343" lon="5.16825">
        <ele>259.69</ele>
        <time>2019-01-07T10:28:13Z</time>
      </trkpt>
      <trkpt lat="44.04348" lon="5.16814">
        <ele>259.21</ele>
        <time>2019-01-07T10:28:19Z</time>
      </trkpt>
      <trkpt lat="44.0435" lon="5.16801">
        <ele>259.21</ele>
        <time>2019-01-07T10:28:27Z</time>
      </trkpt>
      <trkpt lat="44.04356" lon="5.16784">
        <ele>258.25</ele>
        <time>2019-01-07T10:28:40Z</time>
      </trkpt>
      <trkpt lat="44.04362" lon="5.16779">
        <ele>257.77</ele>
        <time>2019-01-07T10:29:01Z</time>
      </trkpt>
      <trkpt lat="44.04373" lon="5.16761">
        <ele>256.81</ele>
        <time>2019-01-07T10:29:18Z</time>
      </trkpt>
      <trkpt lat="44.04394" lon="5.16742">
        <ele>256.33</ele>
        <time>2019-01-07T10:29:39Z</time>
      </trkpt>
      <trkpt lat="44.0441" lon="5.16725">
        <ele>255.85</ele>
        <time>2019-01-07T10:29:56Z</time>
      </trkpt>
      <trkpt lat="44.04425" lon="5.16713">
        <ele>255.85</ele>
        <time>2019-01-07T10:30:11Z</time>
      </trkpt>
      <trkpt lat="44.04437" lon="5.16699">
        <ele>255.37</ele>
        <time>2019-01-07T10:30:27Z</time>
      </trkpt>
      <trkpt lat="44.04441" lon="5.16696">
        <ele>255.37</ele>
        <time>2019-01-07T10:30:30Z</time>
      </trkpt>
      <trkpt lat="44.04445" lon="5.16693">
        <ele>255.37</ele>
        <time>2019-01-07T10:30:34Z</time>
      </trkpt>
      <trkpt lat="44.04458" lon="5.16682">
        <ele>254.41</ele>
        <time>2019-01-07T10:30:46Z</time>
      </trkpt>
      <trkpt lat="44.04466" lon="5.16677">
        <ele>254.41</ele>
        <time>2019-01-07T10:30:52Z</time>
      </trkpt>
      <trkpt lat="44.04482" lon="5.1667">
        <ele>253.44</ele>
        <time>2019-01-07T10:31:10Z</time>
      </trkpt>
      <trkpt lat="44.04493" lon="5.1666">
        <ele>253.44</ele>
        <time>2019-01-07T10:31:20Z</time>
      </trkpt>
      <trkpt lat="44.045" lon="5.16649">
        <ele>252.96</ele>
        <time>2019-01-07T10:31:27Z</time>
      </trkpt>
      <trkpt lat="44.04513" lon="5.16628">
        <ele>250.56</ele>
        <time>2019-01-07T10:31:43Z</time>
      </trkpt>
      <trkpt lat="44.04523" lon="5.16604">
        <ele>248.64</ele>
        <time>2019-01-07T10:31:59Z</time>
      </trkpt>
      <trkpt lat="44.04531" lon="5.16591">
        <ele>248.16</ele>
        <time>2019-01-07T10:32:10Z</time>
      </trkpt>
      <trkpt lat="44.0454" lon="5.1657">
        <ele>245.75</ele>
        <time>2019-01-07T10:32:28Z</time>
      </trkpt>
      <trkpt lat="44.04546" lon="5.16552">
        <ele>243.35</ele>
        <time>2019-01-07T10:32:44Z</time>
      </trkpt>
      <trkpt lat="44.04555" lon="5.16536">
        <ele>241.43</ele>
        <time>2019-01-07T10:33:00Z</time>
      </trkpt>
      <trkpt lat="44.04566" lon="5.16515">
        <ele>239.99</ele>
        <time>2019-01-07T10:33:19Z</time>
      </trkpt>
      <trkpt lat="44.04573" lon="5.16499">
        <ele>239.02</ele>
        <time>2019-01-07T10:33:35Z</time>
      </trkpt>
      <trkpt lat="44.04582" lon="5.16484">
        <ele>238.54</ele>
        <time>2019-01-07T10:33:50Z</time>
      </trkpt>
      <trkpt lat="44.04586" lon="5.16474">
        <ele>238.06</ele>
        <time>2019-01-07T10:33:58Z</time>
      </trkpt>
      <trkpt lat="44.04601" lon="5.1646">
        <ele>238.06</ele>
        <time>2019-01-07T10:34:11Z</time>
      </trkpt>
      <trkpt lat="44.04613" lon="5.16443">
        <ele>237.58</ele>
        <time>2019-01-07T10:34:24Z</time>
      </trkpt>
      <trkpt lat="44.04619" lon="5.16421">
        <ele>236.62</ele>
        <time>2019-01-07T10:34:38Z</time>
      </trkpt>
      <trkpt lat="44.04626" lon="5.16405">
        <ele>235.66</ele>
        <time>2019-01-07T10:34:50Z</time>
      </trkpt>
      <trkpt lat="44.04639" lon="5.16389">
        <ele>234.22</ele>
        <time>2019-01-07T10:35:07Z</time>
      </trkpt>
      <trkpt lat="44.04645" lon="5.16384">
        <ele>233.74</ele>
        <time>2019-01-07T10:35:13Z</time>
      </trkpt>
      <trkpt lat="44.0465" lon="5.1638">
        <ele>233.26</ele>
        <time>2019-01-07T10:35:18Z</time>
      </trkpt>
      <trkpt lat="44.04667" lon="5.16361">
        <ele>231.81</ele>
        <time>2019-01-07T10:35:36Z</time>
      </trkpt>
      <trkpt lat="44.04681" lon="5.16343">
        <ele>230.85</ele>
        <time>2019-01-07T10:35:52Z</time>
      </trkpt>
      <trkpt lat="44.04698" lon="5.16322">
        <ele>230.37</ele>
        <time>2019-01-07T10:36:11Z</time>
      </trkpt>
      <trkpt lat="44.04711" lon="5.16303">
        <ele>229.41</ele>
        <time>2019-01-07T10:36:28Z</time>
      </trkpt>
      <trkpt lat="44.0472" lon="5.16299">
        <ele>228.45</ele>
        <time>2019-01-07T10:36:38Z</time>
      </trkpt>
      <trkpt lat="44.04737" lon="5.16297">
        <ele>227.01</ele>
        <time>2019-01-07T10:36:54Z</time>
      </trkpt>
      <trkpt lat="44.04754" lon="5.16272">
        <ele>225.57</ele>
        <time>2019-01-07T10:37:15Z</time>
      </trkpt>
      <trkpt lat="44.04759" lon="5.16266">
        <ele>225.09</ele>
        <time>2019-01-07T10:37:21Z</time>
      </trkpt>
      <trkpt lat="44.04773" lon="5.16253">
        <ele>224.12</ele>
        <time>2019-01-07T10:37:37Z</time>
      </trkpt>
      <trkpt lat="44.04776" lon="5.16238">
        <ele>224.12</ele>
        <time>2019-01-07T10:37:46Z</time>
      </trkpt>
      <trkpt lat="44.04782" lon="5.16216">
        <ele>222.68</ele>
        <time>2019-01-07T10:38:02Z</time>
      </trkpt>
      <trkpt lat="44.0479" lon="5.16188">
        <ele>220.28</ele>
        <time>2019-01-07T10:38:20Z</time>
      </trkpt>
      <trkpt lat="44.04792" lon="5.16164">
        <ele>219.32</ele>
        <time>2019-01-07T10:38:35Z</time>
      </trkpt>
      <trkpt lat="44.04788" lon="5.16142">
        <ele>216.91</ele>
        <time>2019-01-07T10:38:51Z</time>
      </trkpt>
      <trkpt lat="44.04792" lon="5.16116">
        <ele>214.99</ele>
        <time>2019-01-07T10:39:09Z</time>
      </trkpt>
      <trkpt lat="44.04798" lon="5.16089">
        <ele>214.03</ele>
        <time>2019-01-07T10:39:29Z</time>
      </trkpt>
      <trkpt lat="44.048" lon="5.16069">
        <ele>212.59</ele>
        <time>2019-01-07T10:39:43Z</time>
      </trkpt>
      <trkpt lat="44.04808" lon="5.1605">
        <ele>212.11</ele>
        <time>2019-01-07T10:39:56Z</time>
      </trkpt>
      <trkpt lat="44.04811" lon="5.1603">
        <ele>211.63</ele>
        <time>2019-01-07T10:40:10Z</time>
      </trkpt>
      <trkpt lat="44.04812" lon="5.1602">
        <ele>210.67</ele>
        <time>2019-01-07T10:40:18Z</time>
      </trkpt>
      <trkpt lat="44.04811" lon="5.16011">
        <ele>210.19</ele>
        <time>2019-01-07T10:40:24Z</time>
      </trkpt>
      <trkpt lat="44.04801" lon="5.15988">
        <ele>208.26</ele>
        <time>2019-01-07T10:40:42Z</time>
      </trkpt>
      <trkpt lat="44.048" lon="5.15985">
        <ele>207.78</ele>
        <time>2019-01-07T10:40:44Z</time>
      </trkpt>
      <trkpt lat="44.0479" lon="5.15961">
        <ele>205.86</ele>
        <time>2019-01-07T10:41:02Z</time>
      </trkpt>
      <trkpt lat="44.04784" lon="5.15935">
        <ele>204.9</ele>
        <time>2019-01-07T10:41:19Z</time>
      </trkpt>
      <trkpt lat="44.04774" lon="5.15909">
        <ele>204.42</ele>
        <time>2019-01-07T10:41:38Z</time>
      </trkpt>
      <trkpt lat="44.04764" lon="5.15888">
        <ele>203.94</ele>
        <time>2019-01-07T10:41:54Z</time>
      </trkpt>
      <trkpt lat="44.04758" lon="5.15865">
        <ele>202.98</ele>
        <time>2019-01-07T10:42:11Z</time>
      </trkpt>
      <trkpt lat="44.04758" lon="5.15859">
        <ele>202.49</ele>
        <time>2019-01-07T10:42:15Z</time>
      </trkpt>
      <trkpt lat="44.04762" lon="5.15836">
        <ele>200.09</ele>
        <time>2019-01-07T10:42:30Z</time>
      </trkpt>
      <trkpt lat="44.0477" lon="5.15812">
        <ele>198.17</ele>
        <time>2019-01-07T10:42:47Z</time>
      </trkpt>
      <trkpt lat="44.04775" lon="5.15791">
        <ele>196.73</ele>
        <time>2019-01-07T10:43:02Z</time>
      </trkpt>
      <trkpt lat="44.04775" lon="5.15767">
        <ele>195.28</ele>
        <time>2019-01-07T10:43:18Z</time>
      </trkpt>
      <trkpt lat="44.04773" lon="5.15749">
        <ele>194.32</ele>
        <time>2019-01-07T10:43:31Z</time>
      </trkpt>
      <trkpt lat="44.04772" lon="5.15721">
        <ele>193.36</ele>
        <time>2019-01-07T10:43:48Z</time>
      </trkpt>
      <trkpt lat="44.04774" lon="5.15694">
        <ele>193.36</ele>
        <time>2019-01-07T10:44:04Z</time>
      </trkpt>
      <trkpt lat="44.04773" lon="5.15686">
        <ele>193.36</ele>
        <time>2019-01-07T10:44:21Z</time>
      </trkpt>
      <trkpt lat="44.04773" lon="5.15685">
        <ele>193.36</ele>
        <time>2019-01-07T10:44:43Z</time>
      </trkpt>
      <trkpt lat="44.04772" lon="5.15684">
        <ele>193.36</ele>
        <time>2019-01-07T10:45:12Z</time>
      </trkpt>
      <trkpt lat="44.04773" lon="5.15682">
        <ele>193.36</ele>
        <time>2019-01-07T10:45:56Z</time>
      </trkpt>
      <trkpt lat="44.04772" lon="5.15678">
        <ele>193.36</ele>
        <time>2019-01-07T10:46:25Z</time>
      </trkpt>
      <trkpt lat="44.04772" lon="5.15679">
        <ele>193.36</ele>
        <time>2019-01-07T10:46:48Z</time>
      </trkpt>
      <trkpt lat="44.04772" lon="5.15673">
        <ele>193.36</ele>
        <time>2019-01-07T10:46:56Z</time>
      </trkpt>
      <trkpt lat="44.04771" lon="5.1567">
        <ele>193.36</ele>
        <time>2019-01-07T10:46:58Z</time>
      </trkpt>
      <trkpt lat="44.04769" lon="5.15658">
        <ele>192.4</ele>
        <time>2019-01-07T10:47:06Z</time>
      </trkpt>
      <trkpt lat="44.04768" lon="5.15654">
        <ele>191.92</ele>
        <time>2019-01-07T10:47:09Z</time>
      </trkpt>
      <trkpt lat="44.04766" lon="5.15647">
        <ele>191.44</ele>
        <time>2019-01-07T10:47:14Z</time>
      </trkpt>
      <trkpt lat="44.0476" lon="5.15624">
        <ele>189.52</ele>
        <time>2019-01-07T10:47:28Z</time>
      </trkpt>
      <trkpt lat="44.04759" lon="5.15595">
        <ele>187.11</ele>
        <time>2019-01-07T10:47:45Z</time>
      </trkpt>
      <trkpt lat="44.04759" lon="5.15575">
        <ele>185.19</ele>
        <time>2019-01-07T10:47:58Z</time>
      </trkpt>
      <trkpt lat="44.0476" lon="5.15561">
        <ele>185.67</ele>
        <time>2019-01-07T10:48:06Z</time>
      </trkpt>
      <trkpt lat="44.04762" lon="5.15537">
        <ele>183.27</ele>
        <time>2019-01-07T10:48:21Z</time>
      </trkpt>
      <trkpt lat="44.04764" lon="5.15513">
        <ele>181.35</ele>
        <time>2019-01-07T10:48:36Z</time>
      </trkpt>
      <trkpt lat="44.04764" lon="5.15508">
        <ele>180.87</ele>
        <time>2019-01-07T10:48:39Z</time>
      </trkpt>
      <trkpt lat="44.04767" lon="5.15486">
        <ele>178.46</ele>
        <time>2019-01-07T10:48:54Z</time>
      </trkpt>
      <trkpt lat="44.04765" lon="5.15461">
        <ele>177.02</ele>
        <time>2019-01-07T10:49:10Z</time>
      </trkpt>
      <trkpt lat="44.04759" lon="5.15444">
        <ele>175.58</ele>
        <time>2019-01-07T10:49:26Z</time>
      </trkpt>
      <trkpt lat="44.04767" lon="5.15434">
        <ele>175.1</ele>
        <time>2019-01-07T10:49:46Z</time>
      </trkpt>
      <trkpt lat="44.04767" lon="5.15432">
        <ele>174.14</ele>
        <time>2019-01-07T10:50:09Z</time>
      </trkpt>
      <trkpt lat="44.04765" lon="5.15433">
        <ele>174.62</ele>
        <time>2019-01-07T10:50:16Z</time>
      </trkpt>
      <trkpt lat="44.0476" lon="5.15434">
        <ele>174.62</ele>
        <time>2019-01-07T10:50:21Z</time>
      </trkpt>
      <trkpt lat="44.04755" lon="5.15444">
        <ele>175.1</ele>
        <time>2019-01-07T10:50:38Z</time>
      </trkpt>
      <trkpt lat="44.04756" lon="5.15446">
        <ele>175.1</ele>
        <time>2019-01-07T10:51:04Z</time>
      </trkpt>
      <trkpt lat="44.04759" lon="5.15445">
        <ele>175.1</ele>
        <time>2019-01-07T10:51:30Z</time>
      </trkpt>
      <trkpt lat="44.04759" lon="5.15444">
        <ele>175.1</ele>
        <time>2019-01-07T10:52:05Z</time>
      </trkpt>
      <trkpt lat="44.04755" lon="5.15447">
        <ele>175.1</ele>
        <time>2019-01-07T10:52:31Z</time>
      </trkpt>
      <trkpt lat="44.04755" lon="5.15446">
        <ele>175.1</ele>
        <time>2019-01-07T10:53:05Z</time>
      </trkpt>
      <trkpt lat="44.04754" lon="5.15446">
        <ele>175.1</ele>
        <time>2019-01-07T10:53:30Z</time>
      </trkpt>
      <trkpt lat="44.0475" lon="5.15461">
        <ele>176.06</ele>
        <time>2019-01-07T10:53:53Z</time>
      </trkpt>
      <trkpt lat="44.0474" lon="5.15479">
        <ele>177.02</ele>
        <time>2019-01-07T10:54:08Z</time>
      </trkpt>
      <trkpt lat="44.04731" lon="5.15497">
        <ele>177.5</ele>
        <time>2019-01-07T10:54:23Z</time>
      </trkpt>
      <trkpt lat="44.04719" lon="5.15522">
        <ele>178.46</ele>
        <time>2019-01-07T10:54:42Z</time>
      </trkpt>
      <trkpt lat="44.04709" lon="5.15539">
        <ele>178.94</ele>
        <time>2019-01-07T10:54:59Z</time>
      </trkpt>
      <trkpt lat="44.04698" lon="5.15555">
        <ele>179.42</ele>
        <time>2019-01-07T10:55:17Z</time>
      </trkpt>
      <trkpt lat="44.04685" lon="5.15578">
        <ele>179.9</ele>
        <time>2019-01-07T10:55:35Z</time>
      </trkpt>
      <trkpt lat="44.04674" lon="5.15598">
        <ele>180.38</ele>
        <time>2019-01-07T10:55:52Z</time>
      </trkpt>
      <trkpt lat="44.04663" lon="5.15613">
        <ele>180.87</ele>
        <time>2019-01-07T10:56:07Z</time>
      </trkpt>
      <trkpt lat="44.0465" lon="5.15635">
        <ele>181.83</ele>
        <time>2019-01-07T10:56:26Z</time>
      </trkpt>
      <trkpt lat="44.04638" lon="5.15656">
        <ele>182.31</ele>
        <time>2019-01-07T10:56:43Z</time>
      </trkpt>
      <trkpt lat="44.0463" lon="5.15672">
        <ele>182.79</ele>
        <time>2019-01-07T10:56:55Z</time>
      </trkpt>
      <trkpt lat="44.04632" lon="5.15685">
        <ele>183.75</ele>
        <time>2019-01-07T10:57:04Z</time>
      </trkpt>
      <trkpt lat="44.04638" lon="5.15702">
        <ele>185.19</ele>
        <time>2019-01-07T10:57:19Z</time>
      </trkpt>
      <trkpt lat="44.04633" lon="5.15712">
        <ele>186.15</ele>
        <time>2019-01-07T10:57:28Z</time>
      </trkpt>
      <trkpt lat="44.04628" lon="5.15724">
        <ele>186.63</ele>
        <time>2019-01-07T10:57:38Z</time>
      </trkpt>
      <trkpt lat="44.04618" lon="5.15742">
        <ele>187.11</ele>
        <time>2019-01-07T10:57:55Z</time>
      </trkpt>
      <trkpt lat="44.04614" lon="5.15746">
        <ele>187.59</ele>
        <time>2019-01-07T10:58:07Z</time>
      </trkpt>
      <trkpt lat="44.04612" lon="5.15748">
        <ele>187.59</ele>
        <time>2019-01-07T10:58:09Z</time>
      </trkpt>
      <trkpt lat="44.04598" lon="5.15769">
        <ele>188.08</ele>
        <time>2019-01-07T10:58:28Z</time>
      </trkpt>
      <trkpt lat="44.04588" lon="5.15789">
        <ele>189.04</ele>
        <time>2019-01-07T10:58:43Z</time>
      </trkpt>
      <trkpt lat="44.04584" lon="5.15791">
        <ele>189.04</ele>
        <time>2019-01-07T10:59:01Z</time>
      </trkpt>
      <trkpt lat="44.04584" lon="5.15791">
        <ele>189.04</ele>
        <time>2019-01-07T10:59:31Z</time>
      </trkpt>
      <trkpt lat="44.04583" lon="5.15789">
        <ele>189.04</ele>
        <time>2019-01-07T11:00:06Z</time>
      </trkpt>
      <trkpt lat="44.04585" lon="5.15791">
        <ele>189.04</ele>
        <time>2019-01-07T11:00:41Z</time>
      </trkpt>
      <trkpt lat="44.04582" lon="5.15791">
        <ele>189.04</ele>
        <time>2019-01-07T11:01:14Z</time>
      </trkpt>
      <trkpt lat="44.04584" lon="5.15791">
        <ele>189.04</ele>
        <time>2019-01-07T11:01:43Z</time>
      </trkpt>
      <trkpt lat="44.04583" lon="5.15793">
        <ele>189.04</ele>
        <time>2019-01-07T11:03:28Z</time>
      </trkpt>
      <trkpt lat="44.04584" lon="5.1579">
        <ele>189.04</ele>
        <time>2019-01-07T11:04:17Z</time>
      </trkpt>
      <trkpt lat="44.04583" lon="5.15791">
        <ele>189.04</ele>
        <time>2019-01-07T11:05:02Z</time>
      </trkpt>
      <trkpt lat="44.04585" lon="5.15791">
        <ele>189.04</ele>
        <time>2019-01-07T11:07:02Z</time>
      </trkpt>
      <trkpt lat="44.04584" lon="5.15793">
        <ele>189.04</ele>
        <time>2019-01-07T11:09:13Z</time>
      </trkpt>
      <trkpt lat="44.04585" lon="5.15792">
        <ele>189.04</ele>
        <time>2019-01-07T11:10:34Z</time>
      </trkpt>
      <trkpt lat="44.04585" lon="5.15791">
        <ele>189.04</ele>
        <time>2019-01-07T11:12:46Z</time>
      </trkpt>
      <trkpt lat="44.04583" lon="5.15793">
        <ele>189.04</ele>
        <time>2019-01-07T11:15:48Z</time>
      </trkpt>
      <trkpt lat="44.04584" lon="5.15791">
        <ele>189.04</ele>
        <time>2019-01-07T11:18:33Z</time>
      </trkpt>
      <trkpt lat="44.04583" lon="5.15789">
        <ele>189.04</ele>
        <time>2019-01-07T11:20:06Z</time>
      </trkpt>
      <trkpt lat="44.04583" lon="5.1579">
        <ele>189.04</ele>
        <time>2019-01-07T11:20:42Z</time>
      </trkpt>
      <trkpt lat="44.04583" lon="5.1579">
        <ele>189.04</ele>
        <time>2019-01-07T11:22:05Z</time>
      </trkpt>
      <trkpt lat="44.04584" lon="5.15791">
        <ele>189.04</ele>
        <time>2019-01-07T11:24:53Z</time>
      </trkpt>
      <trkpt lat="44.04583" lon="5.15792">
        <ele>189.04</ele>
        <time>2019-01-07T11:26:49Z</time>
      </trkpt>
      <trkpt lat="44.04582" lon="5.15792">
        <ele>189.04</ele>
        <time>2019-01-07T11:28:03Z</time>
      </trkpt>
      <trkpt lat="44.04582" lon="5.15791">
        <ele>189.04</ele>
        <time>2019-01-07T11:29:35Z</time>
      </trkpt>
      <trkpt lat="44.04583" lon="5.15792">
        <ele>189.04</ele>
        <time>2019-01-07T11:31:49Z</time>
      </trkpt>
      <trkpt lat="44.04583" lon="5.1579">
        <ele>189.04</ele>
        <time>2019-01-07T11:33:02Z</time>
      </trkpt>
      <trkpt lat="44.04583" lon="5.15793">
        <ele>189.04</ele>
        <time>2019-01-07T11:34:27Z</time>
      </trkpt>
      <trkpt lat="44.04582" lon="5.15791">
        <ele>189.04</ele>
        <time>2019-01-07T11:36:24Z</time>
      </trkpt>
      <trkpt lat="44.04581" lon="5.15792">
        <ele>189.04</ele>
        <time>2019-01-07T11:38:46Z</time>
      </trkpt>
      <trkpt lat="44.04581" lon="5.15793">
        <ele>189.04</ele>
        <time>2019-01-07T11:39:20Z</time>
      </trkpt>
      <trkpt lat="44.0458" lon="5.15792">
        <ele>189.04</ele>
        <time>2019-01-07T11:40:32Z</time>
      </trkpt>
      <trkpt lat="44.04581" lon="5.15791">
        <ele>189.04</ele>
        <time>2019-01-07T11:41:19Z</time>
      </trkpt>
      <trkpt lat="44.04581" lon="5.1579">
        <ele>189.04</ele>
        <time>2019-01-07T11:43:01Z</time>
      </trkpt>
      <trkpt lat="44.04581" lon="5.15792">
        <ele>189.04</ele>
        <time>2019-01-07T11:44:41Z</time>
      </trkpt>
      <trkpt lat="44.04582" lon="5.15792">
        <ele>189.04</ele>
        <time>2019-01-07T11:45:02Z</time>
      </trkpt>
      <trkpt lat="44.04583" lon="5.15793">
        <ele>189.04</ele>
        <time>2019-01-07T11:45:30Z</time>
      </trkpt>
      <trkpt lat="44.04583" lon="5.15793">
        <ele>189.04</ele>
        <time>2019-01-07T11:45:56Z</time>
      </trkpt>
      <trkpt lat="44.04584" lon="5.15792">
        <ele>189.04</ele>
        <time>2019-01-07T11:46:18Z</time>
      </trkpt>
      <trkpt lat="44.04581" lon="5.15799">
        <ele>189.04</ele>
        <time>2019-01-07T11:46:42Z</time>
      </trkpt>
      <trkpt lat="44.0458" lon="5.15804">
        <ele>189.52</ele>
        <time>2019-01-07T11:46:46Z</time>
      </trkpt>
      <trkpt lat="44.04577" lon="5.15808">
        <ele>194.32</ele>
        <time>2019-01-07T11:46:50Z</time>
      </trkpt>
      <trkpt lat="44.04576" lon="5.15809">
        <ele>194.32</ele>
        <time>2019-01-07T11:46:51Z</time>
      </trkpt>
      <trkpt lat="44.04564" lon="5.15827">
        <ele>195.28</ele>
        <time>2019-01-07T11:47:07Z</time>
      </trkpt>
      <trkpt lat="44.0455" lon="5.15842">
        <ele>196.25</ele>
        <time>2019-01-07T11:47:25Z</time>
      </trkpt>
      <trkpt lat="44.04538" lon="5.1586">
        <ele>196.73</ele>
        <time>2019-01-07T11:47:44Z</time>
      </trkpt>
      <trkpt lat="44.04538" lon="5.15875">
        <ele>199.61</ele>
        <time>2019-01-07T11:48:03Z</time>
      </trkpt>
      <trkpt lat="44.04548" lon="5.1589">
        <ele>202.01</ele>
        <time>2019-01-07T11:48:25Z</time>
      </trkpt>
      <trkpt lat="44.04556" lon="5.15896">
        <ele>204.42</ele>
        <time>2019-01-07T11:48:49Z</time>
      </trkpt>
      <trkpt lat="44.04558" lon="5.15911">
        <ele>204.9</ele>
        <time>2019-01-07T11:49:05Z</time>
      </trkpt>
      <trkpt lat="44.04567" lon="5.15928">
        <ele>206.82</ele>
        <time>2019-01-07T11:49:23Z</time>
      </trkpt>
      <trkpt lat="44.04576" lon="5.15941">
        <ele>208.74</ele>
        <time>2019-01-07T11:49:43Z</time>
      </trkpt>
      <trkpt lat="44.04581" lon="5.15946">
        <ele>209.7</ele>
        <time>2019-01-07T11:50:00Z</time>
      </trkpt>
      <trkpt lat="44.04582" lon="5.15947">
        <ele>210.19</ele>
        <time>2019-01-07T11:50:32Z</time>
      </trkpt>
      <trkpt lat="44.04581" lon="5.15956">
        <ele>210.67</ele>
        <time>2019-01-07T11:50:55Z</time>
      </trkpt>
      <trkpt lat="44.04587" lon="5.15966">
        <ele>211.63</ele>
        <time>2019-01-07T11:51:09Z</time>
      </trkpt>
      <trkpt lat="44.04593" lon="5.15971">
        <ele>211.63</ele>
        <time>2019-01-07T11:51:16Z</time>
      </trkpt>
      <trkpt lat="44.04599" lon="5.15989">
        <ele>212.59</ele>
        <time>2019-01-07T11:51:36Z</time>
      </trkpt>
      <trkpt lat="44.04601" lon="5.16004">
        <ele>214.03</ele>
        <time>2019-01-07T11:51:51Z</time>
      </trkpt>
      <trkpt lat="44.04602" lon="5.16011">
        <ele>214.51</ele>
        <time>2019-01-07T11:51:57Z</time>
      </trkpt>
      <trkpt lat="44.04603" lon="5.16015">
        <ele>214.51</ele>
        <time>2019-01-07T11:52:00Z</time>
      </trkpt>
      <trkpt lat="44.04614" lon="5.16031">
        <ele>214.99</ele>
        <time>2019-01-07T11:52:16Z</time>
      </trkpt>
      <trkpt lat="44.04624" lon="5.16035">
        <ele>215.95</ele>
        <time>2019-01-07T11:52:28Z</time>
      </trkpt>
      <trkpt lat="44.04639" lon="5.16044">
        <ele>215.95</ele>
        <time>2019-01-07T11:52:43Z</time>
      </trkpt>
      <trkpt lat="44.04639" lon="5.16045">
        <ele>215.95</ele>
        <time>2019-01-07T11:52:44Z</time>
      </trkpt>
      <trkpt lat="44.04646" lon="5.16064">
        <ele>216.43</ele>
        <time>2019-01-07T11:53:01Z</time>
      </trkpt>
      <trkpt lat="44.04659" lon="5.16078">
        <ele>216.91</ele>
        <time>2019-01-07T11:53:21Z</time>
      </trkpt>
      <trkpt lat="44.04671" lon="5.16088">
        <ele>217.4</ele>
        <time>2019-01-07T11:53:37Z</time>
      </trkpt>
      <trkpt lat="44.04682" lon="5.16102">
        <ele>219.32</ele>
        <time>2019-01-07T11:53:57Z</time>
      </trkpt>
      <trkpt lat="44.04685" lon="5.16128">
        <ele>220.76</ele>
        <time>2019-01-07T11:54:16Z</time>
      </trkpt>
      <trkpt lat="44.04689" lon="5.16144">
        <ele>221.24</ele>
        <time>2019-01-07T11:54:35Z</time>
      </trkpt>
      <trkpt lat="44.04688" lon="5.16164">
        <ele>224.12</ele>
        <time>2019-01-07T11:54:57Z</time>
      </trkpt>
      <trkpt lat="44.04693" lon="5.16183">
        <ele>224.12</ele>
        <time>2019-01-07T11:55:16Z</time>
      </trkpt>
      <trkpt lat="44.04693" lon="5.16189">
        <ele>225.57</ele>
        <time>2019-01-07T11:55:39Z</time>
      </trkpt>
      <trkpt lat="44.04693" lon="5.16194">
        <ele>226.05</ele>
        <time>2019-01-07T11:55:49Z</time>
      </trkpt>
      <trkpt lat="44.04681" lon="5.16198">
        <ele>225.57</ele>
        <time>2019-01-07T11:56:07Z</time>
      </trkpt>
      <trkpt lat="44.04669" lon="5.16196">
        <ele>225.57</ele>
        <time>2019-01-07T11:56:32Z</time>
      </trkpt>
      <trkpt lat="44.0467" lon="5.16187">
        <ele>224.12</ele>
        <time>2019-01-07T11:56:49Z</time>
      </trkpt>
      <trkpt lat="44.04656" lon="5.16182">
        <ele>223.16</ele>
        <time>2019-01-07T11:57:07Z</time>
      </trkpt>
      <trkpt lat="44.04645" lon="5.16185">
        <ele>223.64</ele>
        <time>2019-01-07T11:57:29Z</time>
      </trkpt>
      <trkpt lat="44.04642" lon="5.16186">
        <ele>223.16</ele>
        <time>2019-01-07T11:57:57Z</time>
      </trkpt>
      <trkpt lat="44.04635" lon="5.16184">
        <ele>222.2</ele>
        <time>2019-01-07T11:58:19Z</time>
      </trkpt>
      <trkpt lat="44.0463" lon="5.16185">
        <ele>222.68</ele>
        <time>2019-01-07T11:58:52Z</time>
      </trkpt>
      <trkpt lat="44.04629" lon="5.16184">
        <ele>222.68</ele>
        <time>2019-01-07T11:58:53Z</time>
      </trkpt>
      <trkpt lat="44.0462" lon="5.16193">
        <ele>223.64</ele>
        <time>2019-01-07T11:59:12Z</time>
      </trkpt>
      <trkpt lat="44.04608" lon="5.16194">
        <ele>224.61</ele>
        <time>2019-01-07T11:59:30Z</time>
      </trkpt>
      <trkpt lat="44.04589" lon="5.16184">
        <ele>223.64</ele>
        <time>2019-01-07T11:59:53Z</time>
      </trkpt>
      <trkpt lat="44.0457" lon="5.16179">
        <ele>224.12</ele>
        <time>2019-01-07T12:00:11Z</time>
      </trkpt>
      <trkpt lat="44.04553" lon="5.16172">
        <ele>223.64</ele>
        <time>2019-01-07T12:00:32Z</time>
      </trkpt>
      <trkpt lat="44.04537" lon="5.16157">
        <ele>223.16</ele>
        <time>2019-01-07T12:00:52Z</time>
      </trkpt>
      <trkpt lat="44.04527" lon="5.16148">
        <ele>223.16</ele>
        <time>2019-01-07T12:01:12Z</time>
      </trkpt>
      <trkpt lat="44.04523" lon="5.16155">
        <ele>223.16</ele>
        <time>2019-01-07T12:01:36Z</time>
      </trkpt>
      <trkpt lat="44.04514" lon="5.16169">
        <ele>223.16</ele>
        <time>2019-01-07T12:01:52Z</time>
      </trkpt>
      <trkpt lat="44.04506" lon="5.16172">
        <ele>223.16</ele>
        <time>2019-01-07T12:02:12Z</time>
      </trkpt>
      <trkpt lat="44.04506" lon="5.16169">
        <ele>223.16</ele>
        <time>2019-01-07T12:02:37Z</time>
      </trkpt>
      <trkpt lat="44.04506" lon="5.1617">
        <ele>223.16</ele>
        <time>2019-01-07T12:03:00Z</time>
      </trkpt>
      <trkpt lat="44.04504" lon="5.16169">
        <ele>223.16</ele>
        <time>2019-01-07T12:03:26Z</time>
      </trkpt>
      <trkpt lat="44.04501" lon="5.16164">
        <ele>223.16</ele>
        <time>2019-01-07T12:03:51Z</time>
      </trkpt>
      <trkpt lat="44.04492" lon="5.16162">
        <ele>223.16</ele>
        <time>2019-01-07T12:04:02Z</time>
      </trkpt>
      <trkpt lat="44.04478" lon="5.16162">
        <ele>223.16</ele>
        <time>2019-01-07T12:04:20Z</time>
      </trkpt>
      <trkpt lat="44.0448" lon="5.16154">
        <ele>221.24</ele>
        <time>2019-01-07T12:04:39Z</time>
      </trkpt>
      <trkpt lat="44.04485" lon="5.1614">
        <ele>219.8</ele>
        <time>2019-01-07T12:04:56Z</time>
      </trkpt>
      <trkpt lat="44.04492" lon="5.16125">
        <ele>218.84</ele>
        <time>2019-01-07T12:05:16Z</time>
      </trkpt>
      <trkpt lat="44.04496" lon="5.16119">
        <ele>218.36</ele>
        <time>2019-01-07T12:05:33Z</time>
      </trkpt>
      <trkpt lat="44.04494" lon="5.16128">
        <ele>218.84</ele>
        <time>2019-01-07T12:05:56Z</time>
      </trkpt>
      <trkpt lat="44.04495" lon="5.16134">
        <ele>219.32</ele>
        <time>2019-01-07T12:06:02Z</time>
      </trkpt>
      <trkpt lat="44.04496" lon="5.1613">
        <ele>218.84</ele>
        <time>2019-01-07T12:06:10Z</time>
      </trkpt>
      <trkpt lat="44.04495" lon="5.16121">
        <ele>218.84</ele>
        <time>2019-01-07T12:06:13Z</time>
      </trkpt>
      <trkpt lat="44.04494" lon="5.16112">
        <ele>218.84</ele>
        <time>2019-01-07T12:06:34Z</time>
      </trkpt>
      <trkpt lat="44.04486" lon="5.16107">
        <ele>218.36</ele>
        <time>2019-01-07T12:06:55Z</time>
      </trkpt>
      <trkpt lat="44.04475" lon="5.16101">
        <ele>218.36</ele>
        <time>2019-01-07T12:07:15Z</time>
      </trkpt>
      <trkpt lat="44.04474" lon="5.16103">
        <ele>218.36</ele>
        <time>2019-01-07T12:07:17Z</time>
      </trkpt>
      <trkpt lat="44.0447" lon="5.16107">
        <ele>216.43</ele>
        <time>2019-01-07T12:07:22Z</time>
      </trkpt>
      <trkpt lat="44.04462" lon="5.16118">
        <ele>216.43</ele>
        <time>2019-01-07T12:07:36Z</time>
      </trkpt>
      <trkpt lat="44.04453" lon="5.16138">
        <ele>217.4</ele>
        <time>2019-01-07T12:07:59Z</time>
      </trkpt>
      <trkpt lat="44.04442" lon="5.16156">
        <ele>218.36</ele>
        <time>2019-01-07T12:08:19Z</time>
      </trkpt>
      <trkpt lat="44.04437" lon="5.16173">
        <ele>217.4</ele>
        <time>2019-01-07T12:08:37Z</time>
      </trkpt>
      <trkpt lat="44.04427" lon="5.16194">
        <ele>217.88</ele>
        <time>2019-01-07T12:08:58Z</time>
      </trkpt>
      <trkpt lat="44.04417" lon="5.1621">
        <ele>217.88</ele>
        <time>2019-01-07T12:09:16Z</time>
      </trkpt>
      <trkpt lat="44.04408" lon="5.16227">
        <ele>216.91</ele>
        <time>2019-01-07T12:09:37Z</time>
      </trkpt>
      <trkpt lat="44.04399" lon="5.16245">
        <ele>217.88</ele>
        <time>2019-01-07T12:09:59Z</time>
      </trkpt>
      <trkpt lat="44.04389" lon="5.16263">
        <ele>219.32</ele>
        <time>2019-01-07T12:10:24Z</time>
      </trkpt>
      <trkpt lat="44.0438" lon="5.16275">
        <ele>220.28</ele>
        <time>2019-01-07T12:10:41Z</time>
      </trkpt>
      <trkpt lat="44.04367" lon="5.16289">
        <ele>221.72</ele>
        <time>2019-01-07T12:10:58Z</time>
      </trkpt>
      <trkpt lat="44.04356" lon="5.16301">
        <ele>222.2</ele>
        <time>2019-01-07T12:11:14Z</time>
      </trkpt>
      <trkpt lat="44.04343" lon="5.16315">
        <ele>223.16</ele>
        <time>2019-01-07T12:11:31Z</time>
      </trkpt>
      <trkpt lat="44.04326" lon="5.16326">
        <ele>224.61</ele>
        <time>2019-01-07T12:11:52Z</time>
      </trkpt>
      <trkpt lat="44.04315" lon="5.1634">
        <ele>226.05</ele>
        <time>2019-01-07T12:12:15Z</time>
      </trkpt>
      <trkpt lat="44.04306" lon="5.16348">
        <ele>227.01</ele>
        <time>2019-01-07T12:12:27Z</time>
      </trkpt>
      <trkpt lat="44.043" lon="5.16357">
        <ele>227.97</ele>
        <time>2019-01-07T12:12:42Z</time>
      </trkpt>
      <trkpt lat="44.0429" lon="5.16375">
        <ele>229.41</ele>
        <time>2019-01-07T12:13:01Z</time>
      </trkpt>
      <trkpt lat="44.04284" lon="5.16398">
        <ele>231.33</ele>
        <time>2019-01-07T12:13:25Z</time>
      </trkpt>
      <trkpt lat="44.04275" lon="5.16411">
        <ele>233.26</ele>
        <time>2019-01-07T12:13:43Z</time>
      </trkpt>
      <trkpt lat="44.04271" lon="5.16415">
        <ele>233.26</ele>
        <time>2019-01-07T12:13:48Z</time>
      </trkpt>
      <trkpt lat="44.0427" lon="5.16434">
        <ele>234.22</ele>
        <time>2019-01-07T12:14:06Z</time>
      </trkpt>
      <trkpt lat="44.04278" lon="5.16452">
        <ele>236.62</ele>
        <time>2019-01-07T12:14:28Z</time>
      </trkpt>
      <trkpt lat="44.04283" lon="5.16468">
        <ele>238.06</ele>
        <time>2019-01-07T12:14:47Z</time>
      </trkpt>
      <trkpt lat="44.04292" lon="5.16486">
        <ele>240.47</ele>
        <time>2019-01-07T12:15:09Z</time>
      </trkpt>
      <trkpt lat="44.043" lon="5.16503">
        <ele>242.39</ele>
        <time>2019-01-07T12:15:30Z</time>
      </trkpt>
      <trkpt lat="44.04305" lon="5.16508">
        <ele>243.35</ele>
        <time>2019-01-07T12:15:47Z</time>
      </trkpt>
      <trkpt lat="44.04306" lon="5.16507">
        <ele>242.87</ele>
        <time>2019-01-07T12:16:33Z</time>
      </trkpt>
      <trkpt lat="44.04305" lon="5.16508">
        <ele>242.87</ele>
        <time>2019-01-07T12:17:38Z</time>
      </trkpt>
      <trkpt lat="44.04303" lon="5.16508">
        <ele>242.87</ele>
        <time>2019-01-07T12:18:11Z</time>
      </trkpt>
      <trkpt lat="44.04296" lon="5.16523">
        <ele>244.31</ele>
        <time>2019-01-07T12:18:31Z</time>
      </trkpt>
      <trkpt lat="44.04298" lon="5.16525">
        <ele>244.79</ele>
        <time>2019-01-07T12:19:01Z</time>
      </trkpt>
      <trkpt lat="44.04293" lon="5.16538">
        <ele>244.79</ele>
        <time>2019-01-07T12:19:24Z</time>
      </trkpt>
      <trkpt lat="44.04282" lon="5.16547">
        <ele>244.79</ele>
        <time>2019-01-07T12:19:38Z</time>
      </trkpt>
      <trkpt lat="44.04267" lon="5.16556">
        <ele>243.83</ele>
        <time>2019-01-07T12:19:54Z</time>
      </trkpt>
      <trkpt lat="44.04252" lon="5.1657">
        <ele>242.87</ele>
        <time>2019-01-07T12:20:11Z</time>
      </trkpt>
      <trkpt lat="44.04241" lon="5.16583">
        <ele>242.87</ele>
        <time>2019-01-07T12:20:26Z</time>
      </trkpt>
      <trkpt lat="44.04226" lon="5.16599">
        <ele>243.35</ele>
        <time>2019-01-07T12:20:45Z</time>
      </trkpt>
      <trkpt lat="44.04211" lon="5.16615">
        <ele>243.35</ele>
        <time>2019-01-07T12:21:05Z</time>
      </trkpt>
      <trkpt lat="44.04198" lon="5.16632">
        <ele>243.83</ele>
        <time>2019-01-07T12:21:23Z</time>
      </trkpt>
      <trkpt lat="44.04187" lon="5.16649">
        <ele>243.83</ele>
        <time>2019-01-07T12:21:41Z</time>
      </trkpt>
      <trkpt lat="44.04182" lon="5.16653">
        <ele>243.83</ele>
        <time>2019-01-07T12:21:46Z</time>
      </trkpt>
      <trkpt lat="44.04162" lon="5.16669">
        <ele>244.31</ele>
        <time>2019-01-07T12:22:07Z</time>
      </trkpt>
      <trkpt lat="44.04148" lon="5.16684">
        <ele>244.31</ele>
        <time>2019-01-07T12:22:23Z</time>
      </trkpt>
      <trkpt lat="44.04137" lon="5.16698">
        <ele>244.79</ele>
        <time>2019-01-07T12:22:38Z</time>
      </trkpt>
      <trkpt lat="44.04125" lon="5.16706">
        <ele>244.79</ele>
        <time>2019-01-07T12:22:53Z</time>
      </trkpt>
      <trkpt lat="44.04108" lon="5.16717">
        <ele>245.75</ele>
        <time>2019-01-07T12:23:10Z</time>
      </trkpt>
      <trkpt lat="44.04096" lon="5.16727">
        <ele>246.72</ele>
        <time>2019-01-07T12:23:26Z</time>
      </trkpt>
      <trkpt lat="44.04085" lon="5.16736">
        <ele>247.2</ele>
        <time>2019-01-07T12:23:40Z</time>
      </trkpt>
      <trkpt lat="44.04069" lon="5.16739">
        <ele>247.68</ele>
        <time>2019-01-07T12:23:54Z</time>
      </trkpt>
      <trkpt lat="44.04055" lon="5.16747">
        <ele>248.16</ele>
        <time>2019-01-07T12:24:10Z</time>
      </trkpt>
      <trkpt lat="44.04043" lon="5.1675">
        <ele>249.12</ele>
        <time>2019-01-07T12:24:25Z</time>
      </trkpt>
      <trkpt lat="44.04027" lon="5.16757">
        <ele>249.6</ele>
        <time>2019-01-07T12:24:41Z</time>
      </trkpt>
      <trkpt lat="44.0402" lon="5.16763">
        <ele>250.08</ele>
        <time>2019-01-07T12:24:52Z</time>
      </trkpt>
      <trkpt lat="44.04016" lon="5.16765">
        <ele>250.08</ele>
        <time>2019-01-07T12:24:56Z</time>
      </trkpt>
      <trkpt lat="44.03999" lon="5.16769">
        <ele>250.08</ele>
        <time>2019-01-07T12:25:11Z</time>
      </trkpt>
      <trkpt lat="44.0398" lon="5.16762">
        <ele>249.6</ele>
        <time>2019-01-07T12:25:30Z</time>
      </trkpt>
      <trkpt lat="44.03966" lon="5.16759">
        <ele>249.6</ele>
        <time>2019-01-07T12:25:49Z</time>
      </trkpt>
      <trkpt lat="44.03944" lon="5.16759">
        <ele>249.6</ele>
        <time>2019-01-07T12:26:11Z</time>
      </trkpt>
      <trkpt lat="44.03927" lon="5.16753">
        <ele>250.56</ele>
        <time>2019-01-07T12:26:31Z</time>
      </trkpt>
      <trkpt lat="44.03911" lon="5.16739">
        <ele>251.04</ele>
        <time>2019-01-07T12:26:52Z</time>
      </trkpt>
      <trkpt lat="44.03897" lon="5.16729">
        <ele>251.52</ele>
        <time>2019-01-07T12:27:08Z</time>
      </trkpt>
      <trkpt lat="44.03879" lon="5.16713">
        <ele>252</ele>
        <time>2019-01-07T12:27:31Z</time>
      </trkpt>
      <trkpt lat="44.03866" lon="5.16703">
        <ele>252.96</ele>
        <time>2019-01-07T12:27:49Z</time>
      </trkpt>
      <trkpt lat="44.03855" lon="5.16696">
        <ele>253.44</ele>
        <time>2019-01-07T12:28:07Z</time>
      </trkpt>
      <trkpt lat="44.03849" lon="5.16695">
        <ele>254.41</ele>
        <time>2019-01-07T12:28:31Z</time>
      </trkpt>
      <trkpt lat="44.03845" lon="5.167">
        <ele>255.85</ele>
        <time>2019-01-07T12:28:51Z</time>
      </trkpt>
      <trkpt lat="44.03835" lon="5.16711">
        <ele>257.29</ele>
        <time>2019-01-07T12:29:08Z</time>
      </trkpt>
      <trkpt lat="44.03826" lon="5.16721">
        <ele>259.21</ele>
        <time>2019-01-07T12:29:26Z</time>
      </trkpt>
      <trkpt lat="44.03811" lon="5.16736">
        <ele>260.17</ele>
        <time>2019-01-07T12:29:47Z</time>
      </trkpt>
      <trkpt lat="44.03804" lon="5.16752">
        <ele>262.1</ele>
        <time>2019-01-07T12:30:08Z</time>
      </trkpt>
      <trkpt lat="44.03794" lon="5.16778">
        <ele>264.02</ele>
        <time>2019-01-07T12:30:31Z</time>
      </trkpt>
      <trkpt lat="44.03787" lon="5.16795">
        <ele>266.42</ele>
        <time>2019-01-07T12:30:53Z</time>
      </trkpt>
      <trkpt lat="44.03783" lon="5.16813">
        <ele>267.38</ele>
        <time>2019-01-07T12:31:11Z</time>
      </trkpt>
      <trkpt lat="44.0378" lon="5.16818">
        <ele>267.86</ele>
        <time>2019-01-07T12:31:16Z</time>
      </trkpt>
      <trkpt lat="44.03772" lon="5.1684">
        <ele>269.31</ele>
        <time>2019-01-07T12:31:37Z</time>
      </trkpt>
      <trkpt lat="44.03763" lon="5.16857">
        <ele>270.75</ele>
        <time>2019-01-07T12:31:56Z</time>
      </trkpt>
      <trkpt lat="44.03758" lon="5.16865">
        <ele>271.23</ele>
        <time>2019-01-07T12:32:13Z</time>
      </trkpt>
      <trkpt lat="44.03758" lon="5.16869">
        <ele>271.23</ele>
        <time>2019-01-07T12:32:41Z</time>
      </trkpt>
      <trkpt lat="44.03756" lon="5.16872">
        <ele>271.23</ele>
        <time>2019-01-07T12:33:08Z</time>
      </trkpt>
      <trkpt lat="44.03751" lon="5.16871">
        <ele>271.23</ele>
        <time>2019-01-07T12:33:43Z</time>
      </trkpt>
      <trkpt lat="44.03749" lon="5.16873">
        <ele>271.23</ele>
        <time>2019-01-07T12:34:12Z</time>
      </trkpt>
      <trkpt lat="44.0375" lon="5.16874">
        <ele>271.23</ele>
        <time>2019-01-07T12:34:42Z</time>
      </trkpt>
      <trkpt lat="44.03753" lon="5.16875">
        <ele>271.23</ele>
        <time>2019-01-07T12:35:12Z</time>
      </trkpt>
      <trkpt lat="44.0375" lon="5.16868">
        <ele>271.23</ele>
        <time>2019-01-07T12:35:43Z</time>
      </trkpt>
      <trkpt lat="44.03737" lon="5.16843">
        <ele>271.23</ele>
        <time>2019-01-07T12:36:03Z</time>
      </trkpt>
      <trkpt lat="44.0372" lon="5.16824">
        <ele>271.23</ele>
        <time>2019-01-07T12:36:24Z</time>
      </trkpt>
      <trkpt lat="44.03707" lon="5.16815">
        <ele>269.79</ele>
        <time>2019-01-07T12:36:42Z</time>
      </trkpt>
      <trkpt lat="44.03706" lon="5.16814">
        <ele>269.31</ele>
        <time>2019-01-07T12:36:43Z</time>
      </trkpt>
      <trkpt lat="44.0369" lon="5.16814">
        <ele>267.86</ele>
        <time>2019-01-07T12:36:55Z</time>
      </trkpt>
      <trkpt lat="44.03671" lon="5.16799">
        <ele>266.9</ele>
        <time>2019-01-07T12:37:15Z</time>
      </trkpt>
      <trkpt lat="44.03661" lon="5.16797">
        <ele>265.94</ele>
        <time>2019-01-07T12:37:30Z</time>
      </trkpt>
      <trkpt lat="44.03646" lon="5.16793">
        <ele>264.98</ele>
        <time>2019-01-07T12:37:45Z</time>
      </trkpt>
      <trkpt lat="44.03632" lon="5.16777">
        <ele>264.98</ele>
        <time>2019-01-07T12:38:06Z</time>
      </trkpt>
      <trkpt lat="44.03627" lon="5.16772">
        <ele>266.42</ele>
        <time>2019-01-07T12:38:28Z</time>
      </trkpt>
      <trkpt lat="44.03611" lon="5.16762">
        <ele>266.9</ele>
        <time>2019-01-07T12:38:44Z</time>
      </trkpt>
      <trkpt lat="44.03601" lon="5.16755">
        <ele>266.42</ele>
        <time>2019-01-07T12:39:03Z</time>
      </trkpt>
      <trkpt lat="44.03584" lon="5.16743">
        <ele>266.42</ele>
        <time>2019-01-07T12:39:22Z</time>
      </trkpt>
      <trkpt lat="44.03567" lon="5.16733">
        <ele>266.42</ele>
        <time>2019-01-07T12:39:42Z</time>
      </trkpt>
      <trkpt lat="44.03551" lon="5.16735">
        <ele>266.9</ele>
        <time>2019-01-07T12:39:53Z</time>
      </trkpt>
      <trkpt lat="44.03533" lon="5.16744">
        <ele>268.35</ele>
        <time>2019-01-07T12:40:13Z</time>
      </trkpt>
      <trkpt lat="44.03519" lon="5.16749">
        <ele>268.35</ele>
        <time>2019-01-07T12:40:32Z</time>
      </trkpt>
      <trkpt lat="44.03501" lon="5.16754">
        <ele>270.27</ele>
        <time>2019-01-07T12:40:53Z</time>
      </trkpt>
      <trkpt lat="44.03482" lon="5.1676">
        <ele>270.75</ele>
        <time>2019-01-07T12:41:14Z</time>
      </trkpt>
      <trkpt lat="44.03464" lon="5.16771">
        <ele>270.75</ele>
        <time>2019-01-07T12:41:33Z</time>
      </trkpt>
      <trkpt lat="44.0345" lon="5.16781">
        <ele>272.19</ele>
        <time>2019-01-07T12:41:53Z</time>
      </trkpt>
      <trkpt lat="44.03446" lon="5.16791">
        <ele>274.11</ele>
        <time>2019-01-07T12:42:10Z</time>
      </trkpt>
      <trkpt lat="44.0344" lon="5.16791">
        <ele>273.15</ele>
        <time>2019-01-07T12:42:31Z</time>
      </trkpt>
      <trkpt lat="44.03428" lon="5.16789">
        <ele>269.79</ele>
        <time>2019-01-07T12:42:49Z</time>
      </trkpt>
      <trkpt lat="44.03422" lon="5.16797">
        <ele>269.79</ele>
        <time>2019-01-07T12:43:09Z</time>
      </trkpt>
      <trkpt lat="44.03421" lon="5.16808">
        <ele>272.67</ele>
        <time>2019-01-07T12:43:29Z</time>
      </trkpt>
      <trkpt lat="44.03427" lon="5.16806">
        <ele>273.15</ele>
        <time>2019-01-07T12:43:58Z</time>
      </trkpt>
      <trkpt lat="44.03428" lon="5.168">
        <ele>273.15</ele>
        <time>2019-01-07T12:44:27Z</time>
      </trkpt>
      <trkpt lat="44.03435" lon="5.1681">
        <ele>274.59</ele>
        <time>2019-01-07T12:44:50Z</time>
      </trkpt>
      <trkpt lat="44.03435" lon="5.16814">
        <ele>276.52</ele>
        <time>2019-01-07T12:45:12Z</time>
      </trkpt>
      <trkpt lat="44.0343" lon="5.16814">
        <ele>276.52</ele>
        <time>2019-01-07T12:45:45Z</time>
      </trkpt>
      <trkpt lat="44.03436" lon="5.16815">
        <ele>276.52</ele>
        <time>2019-01-07T12:46:30Z</time>
      </trkpt>
      <trkpt lat="44.03434" lon="5.1681">
        <ele>276.52</ele>
        <time>2019-01-07T12:47:00Z</time>
      </trkpt>
      <trkpt lat="44.03429" lon="5.1681">
        <ele>276.52</ele>
        <time>2019-01-07T12:47:29Z</time>
      </trkpt>
      <trkpt lat="44.03427" lon="5.16804">
        <ele>276.52</ele>
        <time>2019-01-07T12:47:59Z</time>
      </trkpt>
      <trkpt lat="44.03421" lon="5.16819">
        <ele>276.52</ele>
        <time>2019-01-07T12:48:18Z</time>
      </trkpt>
      <trkpt lat="44.03423" lon="5.16828">
        <ele>276.52</ele>
        <time>2019-01-07T12:48:40Z</time>
      </trkpt>
      <trkpt lat="44.03418" lon="5.16843">
        <ele>276.52</ele>
        <time>2019-01-07T12:49:02Z</time>
      </trkpt>
      <trkpt lat="44.03418" lon="5.16852">
        <ele>276.52</ele>
        <time>2019-01-07T12:49:23Z</time>
      </trkpt>
      <trkpt lat="44.03427" lon="5.16866">
        <ele>276.52</ele>
        <time>2019-01-07T12:49:43Z</time>
      </trkpt>
      <trkpt lat="44.03433" lon="5.16873">
        <ele>285.17</ele>
        <time>2019-01-07T12:49:58Z</time>
      </trkpt>
      <trkpt lat="44.03433" lon="5.16874">
        <ele>285.17</ele>
        <time>2019-01-07T12:49:59Z</time>
      </trkpt>
      <trkpt lat="44.03452" lon="5.16877">
        <ele>287.09</ele>
        <time>2019-01-07T12:50:22Z</time>
      </trkpt>
      <trkpt lat="44.03455" lon="5.16886">
        <ele>289.97</ele>
        <time>2019-01-07T12:50:44Z</time>
      </trkpt>
      <trkpt lat="44.03469" lon="5.16895">
        <ele>292.38</ele>
        <time>2019-01-07T12:51:06Z</time>
      </trkpt>
      <trkpt lat="44.03481" lon="5.16894">
        <ele>294.3</ele>
        <time>2019-01-07T12:51:21Z</time>
      </trkpt>
      <trkpt lat="44.0349" lon="5.16898">
        <ele>294.78</ele>
        <time>2019-01-07T12:51:38Z</time>
      </trkpt>
      <trkpt lat="44.03493" lon="5.16905">
        <ele>297.67</ele>
        <time>2019-01-07T12:51:56Z</time>
      </trkpt>
      <trkpt lat="44.0348" lon="5.16909">
        <ele>299.59</ele>
        <time>2019-01-07T12:52:15Z</time>
      </trkpt>
      <trkpt lat="44.03458" lon="5.16913">
        <ele>299.59</ele>
        <time>2019-01-07T12:52:37Z</time>
      </trkpt>
      <trkpt lat="44.03443" lon="5.16921">
        <ele>300.07</ele>
        <time>2019-01-07T12:52:59Z</time>
      </trkpt>
      <trkpt lat="44.03442" lon="5.16932">
        <ele>302.47</ele>
        <time>2019-01-07T12:53:20Z</time>
      </trkpt>
      <trkpt lat="44.03447" lon="5.16941">
        <ele>305.84</ele>
        <time>2019-01-07T12:53:39Z</time>
      </trkpt>
      <trkpt lat="44.03444" lon="5.16947">
        <ele>307.76</ele>
        <time>2019-01-07T12:54:00Z</time>
      </trkpt>
      <trkpt lat="44.03448" lon="5.16948">
        <ele>308.24</ele>
        <time>2019-01-07T12:54:19Z</time>
      </trkpt>
      <trkpt lat="44.03447" lon="5.16946">
        <ele>307.76</ele>
        <time>2019-01-07T12:54:49Z</time>
      </trkpt>
      <trkpt lat="44.03444" lon="5.16947">
        <ele>307.76</ele>
        <time>2019-01-07T12:55:15Z</time>
      </trkpt>
      <trkpt lat="44.03444" lon="5.16949">
        <ele>307.76</ele>
        <time>2019-01-07T12:55:41Z</time>
      </trkpt>
      <trkpt lat="44.03446" lon="5.16956">
        <ele>307.76</ele>
        <time>2019-01-07T12:56:13Z</time>
      </trkpt>
      <trkpt lat="44.03447" lon="5.16953">
        <ele>307.76</ele>
        <time>2019-01-07T12:56:41Z</time>
      </trkpt>
      <trkpt lat="44.03448" lon="5.16954">
        <ele>307.76</ele>
        <time>2019-01-07T12:57:13Z</time>
      </trkpt>
      <trkpt lat="44.03448" lon="5.16955">
        <ele>307.76</ele>
        <time>2019-01-07T12:57:35Z</time>
      </trkpt>
      <trkpt lat="44.03444" lon="5.16951">
        <ele>307.76</ele>
        <time>2019-01-07T12:58:01Z</time>
      </trkpt>
      <trkpt lat="44.03443" lon="5.16949">
        <ele>307.76</ele>
        <time>2019-01-07T12:58:28Z</time>
      </trkpt>
      <trkpt lat="44.03444" lon="5.16955">
        <ele>307.76</ele>
        <time>2019-01-07T12:58:54Z</time>
      </trkpt>
      <trkpt lat="44.03444" lon="5.16954">
        <ele>307.76</ele>
        <time>2019-01-07T12:59:28Z</time>
      </trkpt>
      <trkpt lat="44.03445" lon="5.16953">
        <ele>307.76</ele>
        <time>2019-01-07T12:59:54Z</time>
      </trkpt>
      <trkpt lat="44.03442" lon="5.16953">
        <ele>307.76</ele>
        <time>2019-01-07T13:00:22Z</time>
      </trkpt>
      <trkpt lat="44.03434" lon="5.16949">
        <ele>307.76</ele>
        <time>2019-01-07T13:00:45Z</time>
      </trkpt>
      <trkpt lat="44.03422" lon="5.16946">
        <ele>305.84</ele>
        <time>2019-01-07T13:00:58Z</time>
      </trkpt>
      <trkpt lat="44.03411" lon="5.16949">
        <ele>305.36</ele>
        <time>2019-01-07T13:01:17Z</time>
      </trkpt>
      <trkpt lat="44.03393" lon="5.16954">
        <ele>305.84</ele>
        <time>2019-01-07T13:01:41Z</time>
      </trkpt>
      <trkpt lat="44.03377" lon="5.16962">
        <ele>304.39</ele>
        <time>2019-01-07T13:02:01Z</time>
      </trkpt>
      <trkpt lat="44.0337" lon="5.16968">
        <ele>304.88</ele>
        <time>2019-01-07T13:02:20Z</time>
      </trkpt>
      <trkpt lat="44.03367" lon="5.16977">
        <ele>304.39</ele>
        <time>2019-01-07T13:02:45Z</time>
      </trkpt>
      <trkpt lat="44.03366" lon="5.16993">
        <ele>304.88</ele>
        <time>2019-01-07T13:03:04Z</time>
      </trkpt>
      <trkpt lat="44.03379" lon="5.16992">
        <ele>304.88</ele>
        <time>2019-01-07T13:03:24Z</time>
      </trkpt>
      <trkpt lat="44.03382" lon="5.16999">
        <ele>304.88</ele>
        <time>2019-01-07T13:03:43Z</time>
      </trkpt>
      <trkpt lat="44.03384" lon="5.17011">
        <ele>311.6</ele>
        <time>2019-01-07T13:03:52Z</time>
      </trkpt>
      <trkpt lat="44.03384" lon="5.17012">
        <ele>312.09</ele>
        <time>2019-01-07T13:03:53Z</time>
      </trkpt>
      <trkpt lat="44.03398" lon="5.17025">
        <ele>314.97</ele>
        <time>2019-01-07T13:04:15Z</time>
      </trkpt>
      <trkpt lat="44.03408" lon="5.17037">
        <ele>317.85</ele>
        <time>2019-01-07T13:04:30Z</time>
      </trkpt>
      <trkpt lat="44.03406" lon="5.17051">
        <ele>318.81</ele>
        <time>2019-01-07T13:04:48Z</time>
      </trkpt>
      <trkpt lat="44.03401" lon="5.17069">
        <ele>317.37</ele>
        <time>2019-01-07T13:05:07Z</time>
      </trkpt>
      <trkpt lat="44.03398" lon="5.17081">
        <ele>317.37</ele>
        <time>2019-01-07T13:05:28Z</time>
      </trkpt>
      <trkpt lat="44.0339" lon="5.17093">
        <ele>317.85</ele>
        <time>2019-01-07T13:05:47Z</time>
      </trkpt>
      <trkpt lat="44.03388" lon="5.17103">
        <ele>318.33</ele>
        <time>2019-01-07T13:05:52Z</time>
      </trkpt>
      <trkpt lat="44.03385" lon="5.17122">
        <ele>319.3</ele>
        <time>2019-01-07T13:06:05Z</time>
      </trkpt>
      <trkpt lat="44.03389" lon="5.17131">
        <ele>319.78</ele>
        <time>2019-01-07T13:06:22Z</time>
      </trkpt>
      <trkpt lat="44.03389" lon="5.17132">
        <ele>319.78</ele>
        <time>2019-01-07T13:06:45Z</time>
      </trkpt>
      <trkpt lat="44.03396" lon="5.17124">
        <ele>319.78</ele>
        <time>2019-01-07T13:07:01Z</time>
      </trkpt>
      <trkpt lat="44.03399" lon="5.17118">
        <ele>319.3</ele>
        <time>2019-01-07T13:07:13Z</time>
      </trkpt>
      <trkpt lat="44.03398" lon="5.17112">
        <ele>318.81</ele>
        <time>2019-01-07T13:07:34Z</time>
      </trkpt>
      <trkpt lat="44.03396" lon="5.17113">
        <ele>318.81</ele>
        <time>2019-01-07T13:08:06Z</time>
      </trkpt>
      <trkpt lat="44.03397" lon="5.17112">
        <ele>318.81</ele>
        <time>2019-01-07T13:08:32Z</time>
      </trkpt>
      <trkpt lat="44.03396" lon="5.17117">
        <ele>318.81</ele>
        <time>2019-01-07T13:08:55Z</time>
      </trkpt>
      <trkpt lat="44.03394" lon="5.17138">
        <ele>318.81</ele>
        <time>2019-01-07T13:09:16Z</time>
      </trkpt>
      <trkpt lat="44.03394" lon="5.17153">
        <ele>318.81</ele>
        <time>2019-01-07T13:09:34Z</time>
      </trkpt>
      <trkpt lat="44.03399" lon="5.17163">
        <ele>321.22</ele>
        <time>2019-01-07T13:09:48Z</time>
      </trkpt>
      <trkpt lat="44.03405" lon="5.17174">
        <ele>322.66</ele>
        <time>2019-01-07T13:10:08Z</time>
      </trkpt>
      <trkpt lat="44.03405" lon="5.17182">
        <ele>322.18</ele>
        <time>2019-01-07T13:10:31Z</time>
      </trkpt>
      <trkpt lat="44.03414" lon="5.17186">
        <ele>323.14</ele>
        <time>2019-01-07T13:10:51Z</time>
      </trkpt>
      <trkpt lat="44.03422" lon="5.17197">
        <ele>324.1</ele>
        <time>2019-01-07T13:11:04Z</time>
      </trkpt>
      <trkpt lat="44.03431" lon="5.17203">
        <ele>325.06</ele>
        <time>2019-01-07T13:11:27Z</time>
      </trkpt>
      <trkpt lat="44.03434" lon="5.17216">
        <ele>325.06</ele>
        <time>2019-01-07T13:11:55Z</time>
      </trkpt>
      <trkpt lat="44.03431" lon="5.17229">
        <ele>324.58</ele>
        <time>2019-01-07T13:12:12Z</time>
      </trkpt>
      <trkpt lat="44.03436" lon="5.1724">
        <ele>326.02</ele>
        <time>2019-01-07T13:12:29Z</time>
      </trkpt>
      <trkpt lat="44.03436" lon="5.17246">
        <ele>326.02</ele>
        <time>2019-01-07T13:12:44Z</time>
      </trkpt>
      <trkpt lat="44.03437" lon="5.17246">
        <ele>326.02</ele>
        <time>2019-01-07T13:13:16Z</time>
      </trkpt>
      <trkpt lat="44.03435" lon="5.17246">
        <ele>326.02</ele>
        <time>2019-01-07T13:13:44Z</time>
      </trkpt>
      <trkpt lat="44.0344" lon="5.17253">
        <ele>326.02</ele>
        <time>2019-01-07T13:14:12Z</time>
      </trkpt>
      <trkpt lat="44.03441" lon="5.17266">
        <ele>326.02</ele>
        <time>2019-01-07T13:14:28Z</time>
      </trkpt>
      <trkpt lat="44.03448" lon="5.17282">
        <ele>326.99</ele>
        <time>2019-01-07T13:14:44Z</time>
      </trkpt>
      <trkpt lat="44.03457" lon="5.17307">
        <ele>328.91</ele>
        <time>2019-01-07T13:15:03Z</time>
      </trkpt>
      <trkpt lat="44.0346" lon="5.17327">
        <ele>329.39</ele>
        <time>2019-01-07T13:15:20Z</time>
      </trkpt>
      <trkpt lat="44.03461" lon="5.17328">
        <ele>329.39</ele>
        <time>2019-01-07T13:15:21Z</time>
      </trkpt>
      <trkpt lat="44.03462" lon="5.17332">
        <ele>329.39</ele>
        <time>2019-01-07T13:15:24Z</time>
      </trkpt>
      <trkpt lat="44.03468" lon="5.17343">
        <ele>329.39</ele>
        <time>2019-01-07T13:15:38Z</time>
      </trkpt>
      <trkpt lat="44.03469" lon="5.17362">
        <ele>329.39</ele>
        <time>2019-01-07T13:15:49Z</time>
      </trkpt>
      <trkpt lat="44.03471" lon="5.1738">
        <ele>329.39</ele>
        <time>2019-01-07T13:16:02Z</time>
      </trkpt>
      <trkpt lat="44.0347" lon="5.17383">
        <ele>329.39</ele>
        <time>2019-01-07T13:16:04Z</time>
      </trkpt>
      <trkpt lat="44.03471" lon="5.17388">
        <ele>329.39</ele>
        <time>2019-01-07T13:16:07Z</time>
      </trkpt>
      <trkpt lat="44.0347" lon="5.17405">
        <ele>329.87</ele>
        <time>2019-01-07T13:16:20Z</time>
      </trkpt>
      <trkpt lat="44.03467" lon="5.1743">
        <ele>330.35</ele>
        <time>2019-01-07T13:16:40Z</time>
      </trkpt>
      <trkpt lat="44.03467" lon="5.17434">
        <ele>330.35</ele>
        <time>2019-01-07T13:17:03Z</time>
      </trkpt>
      <trkpt lat="44.03464" lon="5.1744">
        <ele>330.35</ele>
        <time>2019-01-07T13:17:31Z</time>
      </trkpt>
      <trkpt lat="44.03455" lon="5.17461">
        <ele>328.43</ele>
        <time>2019-01-07T13:17:50Z</time>
      </trkpt>
      <trkpt lat="44.03454" lon="5.17463">
        <ele>327.95</ele>
        <time>2019-01-07T13:17:52Z</time>
      </trkpt>
      <trkpt lat="44.03445" lon="5.17465">
        <ele>326.99</ele>
        <time>2019-01-07T13:18:01Z</time>
      </trkpt>
      <trkpt lat="44.03443" lon="5.17463">
        <ele>326.5</ele>
        <time>2019-01-07T13:18:03Z</time>
      </trkpt>
      <trkpt lat="44.03427" lon="5.17459">
        <ele>326.02</ele>
        <time>2019-01-07T13:18:18Z</time>
      </trkpt>
      <trkpt lat="44.03417" lon="5.17462">
        <ele>326.02</ele>
        <time>2019-01-07T13:18:27Z</time>
      </trkpt>
      <trkpt lat="44.03411" lon="5.17485">
        <ele>326.02</ele>
        <time>2019-01-07T13:18:43Z</time>
      </trkpt>
      <trkpt lat="44.03407" lon="5.17504">
        <ele>327.47</ele>
        <time>2019-01-07T13:18:56Z</time>
      </trkpt>
      <trkpt lat="44.03395" lon="5.17528">
        <ele>328.43</ele>
        <time>2019-01-07T13:19:14Z</time>
      </trkpt>
      <trkpt lat="44.0339" lon="5.17554">
        <ele>328.43</ele>
        <time>2019-01-07T13:19:31Z</time>
      </trkpt>
      <trkpt lat="44.03381" lon="5.17571">
        <ele>327.47</ele>
        <time>2019-01-07T13:19:46Z</time>
      </trkpt>
      <trkpt lat="44.0337" lon="5.17582">
        <ele>326.02</ele>
        <time>2019-01-07T13:19:59Z</time>
      </trkpt>
      <trkpt lat="44.03354" lon="5.17591">
        <ele>323.14</ele>
        <time>2019-01-07T13:20:15Z</time>
      </trkpt>
      <trkpt lat="44.0335" lon="5.17592">
        <ele>322.66</ele>
        <time>2019-01-07T13:20:18Z</time>
      </trkpt>
      <trkpt lat="44.0334" lon="5.17596">
        <ele>321.7</ele>
        <time>2019-01-07T13:20:34Z</time>
      </trkpt>
      <trkpt lat="44.0334" lon="5.17604">
        <ele>321.22</ele>
        <time>2019-01-07T13:20:58Z</time>
      </trkpt>
      <trkpt lat="44.03339" lon="5.1761">
        <ele>320.26</ele>
        <time>2019-01-07T13:21:02Z</time>
      </trkpt>
      <trkpt lat="44.03335" lon="5.17626">
        <ele>318.33</ele>
        <time>2019-01-07T13:21:13Z</time>
      </trkpt>
      <trkpt lat="44.0333" lon="5.17626">
        <ele>316.89</ele>
        <time>2019-01-07T13:21:19Z</time>
      </trkpt>
      <trkpt lat="44.03327" lon="5.17626">
        <ele>316.41</ele>
        <time>2019-01-07T13:21:22Z</time>
      </trkpt>
      <trkpt lat="44.03324" lon="5.17626">
        <ele>316.41</ele>
        <time>2019-01-07T13:21:25Z</time>
      </trkpt>
      <trkpt lat="44.03318" lon="5.17634">
        <ele>314.97</ele>
        <time>2019-01-07T13:21:30Z</time>
      </trkpt>
      <trkpt lat="44.0332" lon="5.17662">
        <ele>316.89</ele>
        <time>2019-01-07T13:21:50Z</time>
      </trkpt>
      <trkpt lat="44.03319" lon="5.17663">
        <ele>317.37</ele>
        <time>2019-01-07T13:22:12Z</time>
      </trkpt>
      <trkpt lat="44.03317" lon="5.17663">
        <ele>317.37</ele>
        <time>2019-01-07T13:22:48Z</time>
      </trkpt>
      <trkpt lat="44.03319" lon="5.17671">
        <ele>317.37</ele>
        <time>2019-01-07T13:23:15Z</time>
      </trkpt>
      <trkpt lat="44.03328" lon="5.17701">
        <ele>316.41</ele>
        <time>2019-01-07T13:23:37Z</time>
      </trkpt>
      <trkpt lat="44.03334" lon="5.17716">
        <ele>316.41</ele>
        <time>2019-01-07T13:23:48Z</time>
      </trkpt>
      <trkpt lat="44.03331" lon="5.17724">
        <ele>315.45</ele>
        <time>2019-01-07T13:23:59Z</time>
      </trkpt>
      <trkpt lat="44.03323" lon="5.17739">
        <ele>313.05</ele>
        <time>2019-01-07T13:24:14Z</time>
      </trkpt>
      <trkpt lat="44.03317" lon="5.17748">
        <ele>312.57</ele>
        <time>2019-01-07T13:24:23Z</time>
      </trkpt>
      <trkpt lat="44.03303" lon="5.17765">
        <ele>313.05</ele>
        <time>2019-01-07T13:24:38Z</time>
      </trkpt>
      <trkpt lat="44.03291" lon="5.1777">
        <ele>313.05</ele>
        <time>2019-01-07T13:24:58Z</time>
      </trkpt>
      <trkpt lat="44.03281" lon="5.17762">
        <ele>312.09</ele>
        <time>2019-01-07T13:25:08Z</time>
      </trkpt>
      <trkpt lat="44.03275" lon="5.17754">
        <ele>311.12</ele>
        <time>2019-01-07T13:25:25Z</time>
      </trkpt>
      <trkpt lat="44.03276" lon="5.17755">
        <ele>311.12</ele>
        <time>2019-01-07T13:25:26Z</time>
      </trkpt>
      <trkpt lat="44.0328" lon="5.17761">
        <ele>311.12</ele>
        <time>2019-01-07T13:25:30Z</time>
      </trkpt>
      <trkpt lat="44.03286" lon="5.17767">
        <ele>311.6</ele>
        <time>2019-01-07T13:25:36Z</time>
      </trkpt>
      <trkpt lat="44.03302" lon="5.17769">
        <ele>313.53</ele>
        <time>2019-01-07T13:25:50Z</time>
      </trkpt>
      <trkpt lat="44.03306" lon="5.1777">
        <ele>314.49</ele>
        <time>2019-01-07T13:25:53Z</time>
      </trkpt>
      <trkpt lat="44.0331" lon="5.17773">
        <ele>315.93</ele>
        <time>2019-01-07T13:25:59Z</time>
      </trkpt>
      <trkpt lat="44.03301" lon="5.17777">
        <ele>316.41</ele>
        <time>2019-01-07T13:26:12Z</time>
      </trkpt>
      <trkpt lat="44.03296" lon="5.17776">
        <ele>315.93</ele>
        <time>2019-01-07T13:26:18Z</time>
      </trkpt>
      <trkpt lat="44.03289" lon="5.17774">
        <ele>315.45</ele>
        <time>2019-01-07T13:26:24Z</time>
      </trkpt>
      <trkpt lat="44.03284" lon="5.17776">
        <ele>314.97</ele>
        <time>2019-01-07T13:26:29Z</time>
      </trkpt>
      <trkpt lat="44.03271" lon="5.17799">
        <ele>316.41</ele>
        <time>2019-01-07T13:26:48Z</time>
      </trkpt>
      <trkpt lat="44.03263" lon="5.17807">
        <ele>316.41</ele>
        <time>2019-01-07T13:26:57Z</time>
      </trkpt>
      <trkpt lat="44.0325" lon="5.17823">
        <ele>317.37</ele>
        <time>2019-01-07T13:27:12Z</time>
      </trkpt>
      <trkpt lat="44.0324" lon="5.17817">
        <ele>316.41</ele>
        <time>2019-01-07T13:27:25Z</time>
      </trkpt>
      <trkpt lat="44.03234" lon="5.17811">
        <ele>315.93</ele>
        <time>2019-01-07T13:27:35Z</time>
      </trkpt>
      <trkpt lat="44.03226" lon="5.17803">
        <ele>315.93</ele>
        <time>2019-01-07T13:27:46Z</time>
      </trkpt>
      <trkpt lat="44.03217" lon="5.17792">
        <ele>315.45</ele>
        <time>2019-01-07T13:27:57Z</time>
      </trkpt>
      <trkpt lat="44.03205" lon="5.17783">
        <ele>314.01</ele>
        <time>2019-01-07T13:28:08Z</time>
      </trkpt>
      <trkpt lat="44.03179" lon="5.17781">
        <ele>311.6</ele>
        <time>2019-01-07T13:28:27Z</time>
      </trkpt>
      <trkpt lat="44.03162" lon="5.17791">
        <ele>309.68</ele>
        <time>2019-01-07T13:28:43Z</time>
      </trkpt>
      <trkpt lat="44.03159" lon="5.17792">
        <ele>309.2</ele>
        <time>2019-01-07T13:28:45Z</time>
      </trkpt>
      <trkpt lat="44.03146" lon="5.17805">
        <ele>307.28</ele>
        <time>2019-01-07T13:28:58Z</time>
      </trkpt>
      <trkpt lat="44.03135" lon="5.17821">
        <ele>305.36</ele>
        <time>2019-01-07T13:29:10Z</time>
      </trkpt>
      <trkpt lat="44.03134" lon="5.1783">
        <ele>304.88</ele>
        <time>2019-01-07T13:29:17Z</time>
      </trkpt>
      <trkpt lat="44.0313" lon="5.17853">
        <ele>302.95</ele>
        <time>2019-01-07T13:29:30Z</time>
      </trkpt>
      <trkpt lat="44.03125" lon="5.17869">
        <ele>302.95</ele>
        <time>2019-01-07T13:29:40Z</time>
      </trkpt>
      <trkpt lat="44.0312" lon="5.17874">
        <ele>303.43</ele>
        <time>2019-01-07T13:30:00Z</time>
      </trkpt>
      <trkpt lat="44.03119" lon="5.17878">
        <ele>303.43</ele>
        <time>2019-01-07T13:30:40Z</time>
      </trkpt>
      <trkpt lat="44.0312" lon="5.17876">
        <ele>303.43</ele>
        <time>2019-01-07T13:31:09Z</time>
      </trkpt>
      <trkpt lat="44.03118" lon="5.17878">
        <ele>303.43</ele>
        <time>2019-01-07T13:31:32Z</time>
      </trkpt>
      <trkpt lat="44.03118" lon="5.17877">
        <ele>303.43</ele>
        <time>2019-01-07T13:31:59Z</time>
      </trkpt>
      <trkpt lat="44.03121" lon="5.17879">
        <ele>303.43</ele>
        <time>2019-01-07T13:32:27Z</time>
      </trkpt>
      <trkpt lat="44.03123" lon="5.17901">
        <ele>304.39</ele>
        <time>2019-01-07T13:32:43Z</time>
      </trkpt>
      <trkpt lat="44.03123" lon="5.17918">
        <ele>306.32</ele>
        <time>2019-01-07T13:32:56Z</time>
      </trkpt>
      <trkpt lat="44.03127" lon="5.17949">
        <ele>309.2</ele>
        <time>2019-01-07T13:33:20Z</time>
      </trkpt>
      <trkpt lat="44.03131" lon="5.17973">
        <ele>311.6</ele>
        <time>2019-01-07T13:33:38Z</time>
      </trkpt>
      <trkpt lat="44.03135" lon="5.17994">
        <ele>314.49</ele>
        <time>2019-01-07T13:33:55Z</time>
      </trkpt>
      <trkpt lat="44.03133" lon="5.18017">
        <ele>316.41</ele>
        <time>2019-01-07T13:34:12Z</time>
      </trkpt>
      <trkpt lat="44.03133" lon="5.18028">
        <ele>316.89</ele>
        <time>2019-01-07T13:34:20Z</time>
      </trkpt>
      <trkpt lat="44.03133" lon="5.18056">
        <ele>319.3</ele>
        <time>2019-01-07T13:34:40Z</time>
      </trkpt>
      <trkpt lat="44.03131" lon="5.1806">
        <ele>319.3</ele>
        <time>2019-01-07T13:34:42Z</time>
      </trkpt>
      <trkpt lat="44.03131" lon="5.18063">
        <ele>319.3</ele>
        <time>2019-01-07T13:34:44Z</time>
      </trkpt>
      <trkpt lat="44.03128" lon="5.18074">
        <ele>319.78</ele>
        <time>2019-01-07T13:34:51Z</time>
      </trkpt>
      <trkpt lat="44.03128" lon="5.18081">
        <ele>320.26</ele>
        <time>2019-01-07T13:34:56Z</time>
      </trkpt>
      <trkpt lat="44.03122" lon="5.1811">
        <ele>321.22</ele>
        <time>2019-01-07T13:35:12Z</time>
      </trkpt>
      <trkpt lat="44.03117" lon="5.18133">
        <ele>322.18</ele>
        <time>2019-01-07T13:35:26Z</time>
      </trkpt>
      <trkpt lat="44.03116" lon="5.18155">
        <ele>322.18</ele>
        <time>2019-01-07T13:35:41Z</time>
      </trkpt>
      <trkpt lat="44.03114" lon="5.18181">
        <ele>323.14</ele>
        <time>2019-01-07T13:35:55Z</time>
      </trkpt>
      <trkpt lat="44.03109" lon="5.18201">
        <ele>323.62</ele>
        <time>2019-01-07T13:36:14Z</time>
      </trkpt>
      <trkpt lat="44.03107" lon="5.18205">
        <ele>324.1</ele>
        <time>2019-01-07T13:36:37Z</time>
      </trkpt>
      <trkpt lat="44.03108" lon="5.18205">
        <ele>323.62</ele>
        <time>2019-01-07T13:37:00Z</time>
      </trkpt>
      <trkpt lat="44.03112" lon="5.18202">
        <ele>324.1</ele>
        <time>2019-01-07T13:37:31Z</time>
      </trkpt>
      <trkpt lat="44.0311" lon="5.18201">
        <ele>323.62</ele>
        <time>2019-01-07T13:37:54Z</time>
      </trkpt>
      <trkpt lat="44.03112" lon="5.182">
        <ele>323.62</ele>
        <time>2019-01-07T13:38:23Z</time>
      </trkpt>
      <trkpt lat="44.03113" lon="5.182">
        <ele>323.62</ele>
        <time>2019-01-07T13:38:42Z</time>
      </trkpt>
      <trkpt lat="44.03124" lon="5.18224">
        <ele>324.1</ele>
        <time>2019-01-07T13:39:05Z</time>
      </trkpt>
      <trkpt lat="44.03124" lon="5.18226">
        <ele>324.58</ele>
        <time>2019-01-07T13:39:06Z</time>
      </trkpt>
      <trkpt lat="44.03126" lon="5.18228">
        <ele>325.54</ele>
        <time>2019-01-07T13:39:08Z</time>
      </trkpt>
      <trkpt lat="44.03132" lon="5.18248">
        <ele>326.5</ele>
        <time>2019-01-07T13:39:25Z</time>
      </trkpt>
      <trkpt lat="44.03133" lon="5.1826">
        <ele>327.95</ele>
        <time>2019-01-07T13:39:42Z</time>
      </trkpt>
      <trkpt lat="44.03126" lon="5.1827">
        <ele>329.87</ele>
        <time>2019-01-07T13:40:09Z</time>
      </trkpt>
      <trkpt lat="44.03125" lon="5.18274">
        <ele>330.83</ele>
        <time>2019-01-07T13:40:13Z</time>
      </trkpt>
      <trkpt lat="44.03121" lon="5.18291">
        <ele>333.23</ele>
        <time>2019-01-07T13:40:28Z</time>
      </trkpt>
      <trkpt lat="44.03121" lon="5.18294">
        <ele>334.2</ele>
        <time>2019-01-07T13:40:33Z</time>
      </trkpt>
      <trkpt lat="44.03118" lon="5.18304">
        <ele>335.16</ele>
        <time>2019-01-07T13:40:42Z</time>
      </trkpt>
      <trkpt lat="44.03115" lon="5.18311">
        <ele>335.64</ele>
        <time>2019-01-07T13:40:48Z</time>
      </trkpt>
      <trkpt lat="44.03104" lon="5.18326">
        <ele>337.56</ele>
        <time>2019-01-07T13:41:05Z</time>
      </trkpt>
      <trkpt lat="44.03095" lon="5.18328">
        <ele>337.56</ele>
        <time>2019-01-07T13:41:25Z</time>
      </trkpt>
      <trkpt lat="44.03091" lon="5.18337">
        <ele>337.56</ele>
        <time>2019-01-07T13:41:57Z</time>
      </trkpt>
      <trkpt lat="44.03085" lon="5.18326">
        <ele>337.56</ele>
        <time>2019-01-07T13:42:20Z</time>
      </trkpt>
      <trkpt lat="44.03076" lon="5.18326">
        <ele>337.56</ele>
        <time>2019-01-07T13:42:36Z</time>
      </trkpt>
      <trkpt lat="44.03056" lon="5.18331">
        <ele>337.56</ele>
        <time>2019-01-07T13:42:56Z</time>
      </trkpt>
      <trkpt lat="44.03038" lon="5.1833">
        <ele>337.56</ele>
        <time>2019-01-07T13:43:14Z</time>
      </trkpt>
      <trkpt lat="44.03021" lon="5.18338">
        <ele>339</ele>
        <time>2019-01-07T13:43:32Z</time>
      </trkpt>
      <trkpt lat="44.03006" lon="5.1834">
        <ele>339.96</ele>
        <time>2019-01-07T13:43:48Z</time>
      </trkpt>
      <trkpt lat="44.02987" lon="5.18347">
        <ele>342.37</ele>
        <time>2019-01-07T13:44:08Z</time>
      </trkpt>
      <trkpt lat="44.02973" lon="5.18354">
        <ele>343.81</ele>
        <time>2019-01-07T13:44:22Z</time>
      </trkpt>
      <trkpt lat="44.02954" lon="5.18364">
        <ele>345.73</ele>
        <time>2019-01-07T13:44:39Z</time>
      </trkpt>
      <trkpt lat="44.02939" lon="5.18364">
        <ele>347.17</ele>
        <time>2019-01-07T13:44:53Z</time>
      </trkpt>
      <trkpt lat="44.02937" lon="5.18364">
        <ele>347.65</ele>
        <time>2019-01-07T13:44:56Z</time>
      </trkpt>
      <trkpt lat="44.02921" lon="5.18371">
        <ele>350.06</ele>
        <time>2019-01-07T13:45:13Z</time>
      </trkpt>
      <trkpt lat="44.0292" lon="5.18373">
        <ele>350.06</ele>
        <time>2019-01-07T13:45:14Z</time>
      </trkpt>
      <trkpt lat="44.0291" lon="5.18385">
        <ele>351.98</ele>
        <time>2019-01-07T13:45:26Z</time>
      </trkpt>
      <trkpt lat="44.02904" lon="5.18409">
        <ele>353.9</ele>
        <time>2019-01-07T13:45:40Z</time>
      </trkpt>
      <trkpt lat="44.02898" lon="5.18426">
        <ele>355.83</ele>
        <time>2019-01-07T13:45:52Z</time>
      </trkpt>
      <trkpt lat="44.02886" lon="5.18448">
        <ele>358.23</ele>
        <time>2019-01-07T13:46:06Z</time>
      </trkpt>
      <trkpt lat="44.02878" lon="5.18459">
        <ele>359.67</ele>
        <time>2019-01-07T13:46:16Z</time>
      </trkpt>
      <trkpt lat="44.02862" lon="5.18483">
        <ele>363.04</ele>
        <time>2019-01-07T13:46:37Z</time>
      </trkpt>
      <trkpt lat="44.02846" lon="5.18503">
        <ele>364.96</ele>
        <time>2019-01-07T13:46:55Z</time>
      </trkpt>
      <trkpt lat="44.02833" lon="5.18513">
        <ele>365.92</ele>
        <time>2019-01-07T13:47:08Z</time>
      </trkpt>
      <trkpt lat="44.02816" lon="5.18535">
        <ele>367.36</ele>
        <time>2019-01-07T13:47:25Z</time>
      </trkpt>
      <trkpt lat="44.0281" lon="5.1855">
        <ele>367.84</ele>
        <time>2019-01-07T13:47:39Z</time>
      </trkpt>
      <trkpt lat="44.02809" lon="5.18553">
        <ele>368.32</ele>
        <time>2019-01-07T13:48:05Z</time>
      </trkpt>
      <trkpt lat="44.02811" lon="5.18552">
        <ele>368.32</ele>
        <time>2019-01-07T13:48:21Z</time>
      </trkpt>
      <trkpt lat="44.02811" lon="5.1855">
        <ele>368.32</ele>
        <time>2019-01-07T13:48:35Z</time>
      </trkpt>
      <trkpt lat="44.02813" lon="5.18552">
        <ele>367.36</ele>
        <time>2019-01-07T13:48:58Z</time>
      </trkpt>
      <trkpt lat="44.02812" lon="5.18548">
        <ele>367.36</ele>
        <time>2019-01-07T13:50:37Z</time>
      </trkpt>
      <trkpt lat="44.02813" lon="5.18548">
        <ele>367.36</ele>
        <time>2019-01-07T13:51:02Z</time>
      </trkpt>
      <trkpt lat="44.02814" lon="5.18557">
        <ele>367.36</ele>
        <time>2019-01-07T13:51:20Z</time>
      </trkpt>
      <trkpt lat="44.02811" lon="5.18586">
        <ele>368.8</ele>
        <time>2019-01-07T13:51:36Z</time>
      </trkpt>
      <trkpt lat="44.02812" lon="5.18583">
        <ele>368.8</ele>
        <time>2019-01-07T13:51:38Z</time>
      </trkpt>
      <trkpt lat="44.02813" lon="5.1858">
        <ele>368.8</ele>
        <time>2019-01-07T13:51:50Z</time>
      </trkpt>
      <trkpt lat="44.02812" lon="5.18585">
        <ele>368.8</ele>
        <time>2019-01-07T13:51:53Z</time>
      </trkpt>
      <trkpt lat="44.02813" lon="5.18599">
        <ele>369.28</ele>
        <time>2019-01-07T13:52:02Z</time>
      </trkpt>
      <trkpt lat="44.02813" lon="5.18606">
        <ele>369.28</ele>
        <time>2019-01-07T13:52:06Z</time>
      </trkpt>
      <trkpt lat="44.02814" lon="5.18617">
        <ele>369.28</ele>
        <time>2019-01-07T13:52:13Z</time>
      </trkpt>
      <trkpt lat="44.02821" lon="5.18641">
        <ele>369.28</ele>
        <time>2019-01-07T13:52:29Z</time>
      </trkpt>
      <trkpt lat="44.02826" lon="5.18671">
        <ele>369.28</ele>
        <time>2019-01-07T13:52:46Z</time>
      </trkpt>
      <trkpt lat="44.02827" lon="5.18679">
        <ele>369.76</ele>
        <time>2019-01-07T13:52:51Z</time>
      </trkpt>
      <trkpt lat="44.02828" lon="5.18686">
        <ele>369.28</ele>
        <time>2019-01-07T13:52:56Z</time>
      </trkpt>
      <trkpt lat="44.02832" lon="5.18709">
        <ele>370.24</ele>
        <time>2019-01-07T13:53:13Z</time>
      </trkpt>
      <trkpt lat="44.02838" lon="5.18727">
        <ele>372.17</ele>
        <time>2019-01-07T13:53:27Z</time>
      </trkpt>
      <trkpt lat="44.0284" lon="5.18737">
        <ele>373.13</ele>
        <time>2019-01-07T13:53:35Z</time>
      </trkpt>
      <trkpt lat="44.02853" lon="5.18757">
        <ele>374.57</ele>
        <time>2019-01-07T13:53:50Z</time>
      </trkpt>
      <trkpt lat="44.02856" lon="5.18761">
        <ele>374.57</ele>
        <time>2019-01-07T13:53:53Z</time>
      </trkpt>
      <trkpt lat="44.02865" lon="5.18782">
        <ele>376.01</ele>
        <time>2019-01-07T13:54:10Z</time>
      </trkpt>
      <trkpt lat="44.02869" lon="5.18787">
        <ele>376.49</ele>
        <time>2019-01-07T13:54:13Z</time>
      </trkpt>
      <trkpt lat="44.02882" lon="5.18813">
        <ele>378.9</ele>
        <time>2019-01-07T13:54:28Z</time>
      </trkpt>
      <trkpt lat="44.02885" lon="5.18819">
        <ele>379.38</ele>
        <time>2019-01-07T13:54:32Z</time>
      </trkpt>
      <trkpt lat="44.02886" lon="5.18821">
        <ele>379.38</ele>
        <time>2019-01-07T13:54:34Z</time>
      </trkpt>
      <trkpt lat="44.02897" lon="5.18846">
        <ele>380.82</ele>
        <time>2019-01-07T13:54:48Z</time>
      </trkpt>
      <trkpt lat="44.02899" lon="5.18853">
        <ele>381.3</ele>
        <time>2019-01-07T13:54:52Z</time>
      </trkpt>
      <trkpt lat="44.02903" lon="5.1886">
        <ele>382.74</ele>
        <time>2019-01-07T13:54:57Z</time>
      </trkpt>
      <trkpt lat="44.0291" lon="5.18895">
        <ele>384.66</ele>
        <time>2019-01-07T13:55:18Z</time>
      </trkpt>
      <trkpt lat="44.02913" lon="5.18922">
        <ele>385.15</ele>
        <time>2019-01-07T13:55:34Z</time>
      </trkpt>
      <trkpt lat="44.0292" lon="5.18934">
        <ele>385.15</ele>
        <time>2019-01-07T13:55:52Z</time>
      </trkpt>
      <trkpt lat="44.02923" lon="5.18937">
        <ele>384.66</ele>
        <time>2019-01-07T13:56:12Z</time>
      </trkpt>
      <trkpt lat="44.0292" lon="5.1894">
        <ele>384.18</ele>
        <time>2019-01-07T13:56:53Z</time>
      </trkpt>
      <trkpt lat="44.02921" lon="5.18942">
        <ele>384.18</ele>
        <time>2019-01-07T13:57:20Z</time>
      </trkpt>
      <trkpt lat="44.02922" lon="5.18941">
        <ele>384.18</ele>
        <time>2019-01-07T13:57:50Z</time>
      </trkpt>
      <trkpt lat="44.02925" lon="5.18939">
        <ele>384.18</ele>
        <time>2019-01-07T13:58:10Z</time>
      </trkpt>
      <trkpt lat="44.02924" lon="5.18938">
        <ele>384.18</ele>
        <time>2019-01-07T13:58:36Z</time>
      </trkpt>
      <trkpt lat="44.02924" lon="5.18937">
        <ele>384.18</ele>
        <time>2019-01-07T13:59:03Z</time>
      </trkpt>
      <trkpt lat="44.02924" lon="5.18935">
        <ele>384.18</ele>
        <time>2019-01-07T13:59:25Z</time>
      </trkpt>
      <trkpt lat="44.02923" lon="5.18934">
        <ele>384.18</ele>
        <time>2019-01-07T13:59:53Z</time>
      </trkpt>
      <trkpt lat="44.02925" lon="5.18939">
        <ele>384.18</ele>
        <time>2019-01-07T14:00:16Z</time>
      </trkpt>
      <trkpt lat="44.02925" lon="5.18944">
        <ele>384.18</ele>
        <time>2019-01-07T14:00:33Z</time>
      </trkpt>
      <trkpt lat="44.02928" lon="5.18951">
        <ele>384.18</ele>
        <time>2019-01-07T14:00:47Z</time>
      </trkpt>
      <trkpt lat="44.02932" lon="5.18963">
        <ele>382.26</ele>
        <time>2019-01-07T14:00:54Z</time>
      </trkpt>
      <trkpt lat="44.0294" lon="5.18984">
        <ele>378.9</ele>
        <time>2019-01-07T14:01:10Z</time>
      </trkpt>
      <trkpt lat="44.02945" lon="5.19004">
        <ele>376.01</ele>
        <time>2019-01-07T14:01:26Z</time>
      </trkpt>
      <trkpt lat="44.02952" lon="5.19018">
        <ele>373.61</ele>
        <time>2019-01-07T14:01:39Z</time>
      </trkpt>
      <trkpt lat="44.02959" lon="5.19041">
        <ele>372.17</ele>
        <time>2019-01-07T14:01:53Z</time>
      </trkpt>
      <trkpt lat="44.02959" lon="5.19044">
        <ele>372.17</ele>
        <time>2019-01-07T14:01:55Z</time>
      </trkpt>
      <trkpt lat="44.02964" lon="5.19061">
        <ele>371.21</ele>
        <time>2019-01-07T14:02:06Z</time>
      </trkpt>
      <trkpt lat="44.02967" lon="5.19066">
        <ele>371.21</ele>
        <time>2019-01-07T14:02:10Z</time>
      </trkpt>
      <trkpt lat="44.02982" lon="5.19095">
        <ele>370.73</ele>
        <time>2019-01-07T14:02:27Z</time>
      </trkpt>
      <trkpt lat="44.02984" lon="5.19099">
        <ele>370.24</ele>
        <time>2019-01-07T14:02:32Z</time>
      </trkpt>
      <trkpt lat="44.02988" lon="5.19122">
        <ele>367.84</ele>
        <time>2019-01-07T14:02:47Z</time>
      </trkpt>
      <trkpt lat="44.02989" lon="5.19143">
        <ele>364.96</ele>
        <time>2019-01-07T14:03:01Z</time>
      </trkpt>
      <trkpt lat="44.02988" lon="5.19165">
        <ele>361.59</ele>
        <time>2019-01-07T14:03:17Z</time>
      </trkpt>
      <trkpt lat="44.02984" lon="5.19192">
        <ele>358.71</ele>
        <time>2019-01-07T14:03:34Z</time>
      </trkpt>
      <trkpt lat="44.02983" lon="5.19219">
        <ele>355.83</ele>
        <time>2019-01-07T14:03:53Z</time>
      </trkpt>
      <trkpt lat="44.0298" lon="5.19241">
        <ele>355.83</ele>
        <time>2019-01-07T14:04:08Z</time>
      </trkpt>
      <trkpt lat="44.02979" lon="5.19261">
        <ele>355.83</ele>
        <time>2019-01-07T14:04:21Z</time>
      </trkpt>
      <trkpt lat="44.02972" lon="5.193">
        <ele>356.79</ele>
        <time>2019-01-07T14:04:40Z</time>
      </trkpt>
      <trkpt lat="44.02972" lon="5.19304">
        <ele>356.79</ele>
        <time>2019-01-07T14:04:43Z</time>
      </trkpt>
      <trkpt lat="44.02973" lon="5.19315">
        <ele>357.75</ele>
        <time>2019-01-07T14:04:50Z</time>
      </trkpt>
      <trkpt lat="44.02971" lon="5.19343">
        <ele>360.63</ele>
        <time>2019-01-07T14:05:08Z</time>
      </trkpt>
      <trkpt lat="44.02971" lon="5.19352">
        <ele>362.07</ele>
        <time>2019-01-07T14:05:29Z</time>
      </trkpt>
      <trkpt lat="44.02971" lon="5.19352">
        <ele>362.07</ele>
        <time>2019-01-07T14:05:58Z</time>
      </trkpt>
      <trkpt lat="44.02971" lon="5.19353">
        <ele>362.07</ele>
        <time>2019-01-07T14:06:23Z</time>
      </trkpt>
      <trkpt lat="44.02974" lon="5.19358">
        <ele>362.07</ele>
        <time>2019-01-07T14:06:26Z</time>
      </trkpt>
      <trkpt lat="44.02982" lon="5.19368">
        <ele>362.55</ele>
        <time>2019-01-07T14:06:35Z</time>
      </trkpt>
      <trkpt lat="44.02988" lon="5.19385">
        <ele>364</ele>
        <time>2019-01-07T14:06:49Z</time>
      </trkpt>
      <trkpt lat="44.02994" lon="5.19399">
        <ele>365.44</ele>
        <time>2019-01-07T14:07:01Z</time>
      </trkpt>
      <trkpt lat="44.03001" lon="5.19415">
        <ele>366.88</ele>
        <time>2019-01-07T14:07:15Z</time>
      </trkpt>
      <trkpt lat="44.03" lon="5.1944">
        <ele>369.76</ele>
        <time>2019-01-07T14:07:32Z</time>
      </trkpt>
      <trkpt lat="44.02999" lon="5.19454">
        <ele>371.21</ele>
        <time>2019-01-07T14:07:41Z</time>
      </trkpt>
      <trkpt lat="44.02998" lon="5.19473">
        <ele>373.61</ele>
        <time>2019-01-07T14:07:57Z</time>
      </trkpt>
      <trkpt lat="44.02998" lon="5.19491">
        <ele>374.57</ele>
        <time>2019-01-07T14:08:10Z</time>
      </trkpt>
      <trkpt lat="44.03001" lon="5.19516">
        <ele>376.97</ele>
        <time>2019-01-07T14:08:27Z</time>
      </trkpt>
      <trkpt lat="44.03008" lon="5.19536">
        <ele>378.42</ele>
        <time>2019-01-07T14:08:43Z</time>
      </trkpt>
      <trkpt lat="44.03013" lon="5.19553">
        <ele>379.86</ele>
        <time>2019-01-07T14:08:56Z</time>
      </trkpt>
      <trkpt lat="44.03016" lon="5.19556">
        <ele>380.34</ele>
        <time>2019-01-07T14:09:00Z</time>
      </trkpt>
      <trkpt lat="44.03024" lon="5.19577">
        <ele>381.3</ele>
        <time>2019-01-07T14:09:15Z</time>
      </trkpt>
      <trkpt lat="44.03028" lon="5.19586">
        <ele>381.78</ele>
        <time>2019-01-07T14:09:22Z</time>
      </trkpt>
      <trkpt lat="44.03029" lon="5.19594">
        <ele>382.26</ele>
        <time>2019-01-07T14:09:29Z</time>
      </trkpt>
      <trkpt lat="44.03037" lon="5.19612">
        <ele>383.7</ele>
        <time>2019-01-07T14:09:43Z</time>
      </trkpt>
      <trkpt lat="44.03038" lon="5.19615">
        <ele>383.7</ele>
        <time>2019-01-07T14:09:45Z</time>
      </trkpt>
      <trkpt lat="44.03041" lon="5.19621">
        <ele>384.18</ele>
        <time>2019-01-07T14:09:50Z</time>
      </trkpt>
      <trkpt lat="44.0305" lon="5.19638">
        <ele>386.11</ele>
        <time>2019-01-07T14:10:04Z</time>
      </trkpt>
      <trkpt lat="44.03052" lon="5.19646">
        <ele>387.07</ele>
        <time>2019-01-07T14:10:09Z</time>
      </trkpt>
      <trkpt lat="44.03056" lon="5.19663">
        <ele>388.99</ele>
        <time>2019-01-07T14:10:24Z</time>
      </trkpt>
      <trkpt lat="44.03057" lon="5.1967">
        <ele>389.95</ele>
        <time>2019-01-07T14:10:30Z</time>
      </trkpt>
      <trkpt lat="44.03055" lon="5.19685">
        <ele>391.87</ele>
        <time>2019-01-07T14:10:43Z</time>
      </trkpt>
      <trkpt lat="44.03051" lon="5.19707">
        <ele>394.28</ele>
        <time>2019-01-07T14:10:59Z</time>
      </trkpt>
      <trkpt lat="44.0305" lon="5.19726">
        <ele>396.68</ele>
        <time>2019-01-07T14:11:15Z</time>
      </trkpt>
      <trkpt lat="44.0305" lon="5.19746">
        <ele>399.08</ele>
        <time>2019-01-07T14:11:31Z</time>
      </trkpt>
      <trkpt lat="44.03049" lon="5.1976">
        <ele>401.49</ele>
        <time>2019-01-07T14:11:43Z</time>
      </trkpt>
      <trkpt lat="44.03051" lon="5.19774">
        <ele>404.37</ele>
        <time>2019-01-07T14:11:57Z</time>
      </trkpt>
      <trkpt lat="44.03048" lon="5.19794">
        <ele>406.77</ele>
        <time>2019-01-07T14:12:13Z</time>
      </trkpt>
      <trkpt lat="44.03047" lon="5.19799">
        <ele>407.26</ele>
        <time>2019-01-07T14:12:18Z</time>
      </trkpt>
      <trkpt lat="44.03047" lon="5.19813">
        <ele>410.14</ele>
        <time>2019-01-07T14:12:31Z</time>
      </trkpt>
      <trkpt lat="44.0305" lon="5.19811">
        <ele>410.62</ele>
        <time>2019-01-07T14:12:34Z</time>
      </trkpt>
      <trkpt lat="44.03068" lon="5.198">
        <ele>413.98</ele>
        <time>2019-01-07T14:12:52Z</time>
      </trkpt>
      <trkpt lat="44.03074" lon="5.19805">
        <ele>417.35</ele>
        <time>2019-01-07T14:13:08Z</time>
      </trkpt>
      <trkpt lat="44.03058" lon="5.19815">
        <ele>417.35</ele>
        <time>2019-01-07T14:13:28Z</time>
      </trkpt>
      <trkpt lat="44.03048" lon="5.19826">
        <ele>417.83</ele>
        <time>2019-01-07T14:13:40Z</time>
      </trkpt>
      <trkpt lat="44.03034" lon="5.19839">
        <ele>418.31</ele>
        <time>2019-01-07T14:13:56Z</time>
      </trkpt>
      <trkpt lat="44.03031" lon="5.19843">
        <ele>418.79</ele>
        <time>2019-01-07T14:14:00Z</time>
      </trkpt>
      <trkpt lat="44.03022" lon="5.19857">
        <ele>418.79</ele>
        <time>2019-01-07T14:14:10Z</time>
      </trkpt>
      <trkpt lat="44.03013" lon="5.19866">
        <ele>419.27</ele>
        <time>2019-01-07T14:14:22Z</time>
      </trkpt>
      <trkpt lat="44.03001" lon="5.19884">
        <ele>419.75</ele>
        <time>2019-01-07T14:14:36Z</time>
      </trkpt>
      <trkpt lat="44.02983" lon="5.19907">
        <ele>420.71</ele>
        <time>2019-01-07T14:14:53Z</time>
      </trkpt>
      <trkpt lat="44.02971" lon="5.19932">
        <ele>422.16</ele>
        <time>2019-01-07T14:15:10Z</time>
      </trkpt>
      <trkpt lat="44.02977" lon="5.19938">
        <ele>422.64</ele>
        <time>2019-01-07T14:15:18Z</time>
      </trkpt>
      <trkpt lat="44.02983" lon="5.19937">
        <ele>422.64</ele>
        <time>2019-01-07T14:15:26Z</time>
      </trkpt>
    </trkseg>
  </trk>
</gpx>